<?xml version="1.0" encoding="UTF-8" standalone="no" ?>
<gpx xmlns="http://www.topografix.com/GPX/1/1" xmlns:xsi="http://www.w3.org/2001/XMLSchema-instance" xsi:schemaLocation="http://www.topografix.com/GPX/1/1 http://www.topografix.com/GPX/1/1/gpx.xsd" version="1.1" creator="VisuGPX - https://www.visugpx.com">
  <metadata>
    <name>Col de la Ferriere-Canaux-Crete de l'Audibergues-Escragnole-St Vallier</name>
  </metadata>
  <trk>
    <name><![CDATA[Col de la Ferriere-Canaux-Crete de l'Audibergues-Escragnole-St Vallier]]></name>
    <trkseg>
      <trkpt lat="43.71194" lon="6.86553">
        <ele>1040.057649</ele>
        <time>2024-12-05T15:41:05.489Z</time>
      </trkpt>
      <trkpt lat="43.71223" lon="6.86507">
        <ele>1040.057649</ele>
        <time>2024-12-05T15:41:19.179Z</time>
      </trkpt>
      <trkpt lat="43.71237" lon="6.86484">
        <ele>1040.057649</ele>
        <time>2024-12-05T15:41:26.235Z</time>
      </trkpt>
      <trkpt lat="43.71259" lon="6.86457">
        <ele>1039.997065</ele>
        <time>2024-12-05T15:41:35.532Z</time>
      </trkpt>
      <trkpt lat="43.71268" lon="6.86439">
        <ele>1039.818805</ele>
        <time>2024-12-05T15:41:40.562Z</time>
      </trkpt>
      <trkpt lat="43.71268" lon="6.86431">
        <ele>1039.749597</ele>
        <time>2024-12-05T15:41:42.533Z</time>
      </trkpt>
      <trkpt lat="43.71299" lon="6.86403">
        <ele>1039.329116</ele>
        <time>2024-12-05T15:41:51.153Z</time>
      </trkpt>
      <trkpt lat="43.71301" lon="6.86393">
        <ele>1039.24871</ele>
        <time>2024-12-05T15:41:53.359Z</time>
      </trkpt>
      <trkpt lat="43.71329" lon="6.86349">
        <ele>1038.762616</ele>
        <time>2024-12-05T15:42:05.761Z</time>
      </trkpt>
      <trkpt lat="43.71365" lon="6.86282">
        <ele>1038.072821</ele>
        <time>2024-12-05T15:42:20.883Z</time>
      </trkpt>
      <trkpt lat="43.71373" lon="6.86279">
        <ele>1037.856167</ele>
        <time>2024-12-05T15:42:22.675Z</time>
      </trkpt>
      <trkpt lat="43.71385" lon="6.86284">
        <ele>1036.787419</ele>
        <time>2024-12-05T15:42:25.781Z</time>
      </trkpt>
      <trkpt lat="43.71417" lon="6.86316">
        <ele>1033.703383</ele>
        <time>2024-12-05T15:42:34.559Z</time>
      </trkpt>
      <trkpt lat="43.71442" lon="6.8635">
        <ele>1030.891373</ele>
        <time>2024-12-05T15:42:42.353Z</time>
      </trkpt>
      <trkpt lat="43.71507" lon="6.86395">
        <ele>1025.056568</ele>
        <time>2024-12-05T15:42:58.351Z</time>
      </trkpt>
      <trkpt lat="43.71528" lon="6.86415">
        <ele>1023.013615</ele>
        <time>2024-12-05T15:43:03.756Z</time>
      </trkpt>
      <trkpt lat="43.71559" lon="6.86439">
        <ele>1019.778113</ele>
        <time>2024-12-05T15:43:11.546Z</time>
      </trkpt>
      <trkpt lat="43.71599" lon="6.86464">
        <ele>1015.828002</ele>
        <time>2024-12-05T15:43:21.034Z</time>
      </trkpt>
      <trkpt lat="43.71657" lon="6.86479">
        <ele>1010.583824</ele>
        <time>2024-12-05T15:43:33.602Z</time>
      </trkpt>
      <trkpt lat="43.71823" lon="6.86514">
        <ele>1000.15776</ele>
        <time>2024-12-05T15:44:12.449Z</time>
      </trkpt>
      <trkpt lat="43.71878" lon="6.86518">
        <ele>997.445933</ele>
        <time>2024-12-05T15:44:26.809Z</time>
      </trkpt>
      <trkpt lat="43.71893" lon="6.86516">
        <ele>997.140221</ele>
        <time>2024-12-05T15:44:30.762Z</time>
      </trkpt>
      <trkpt lat="43.71927" lon="6.86502">
        <ele>996.415897</ele>
        <time>2024-12-05T15:44:40.208Z</time>
      </trkpt>
      <trkpt lat="43.72018" lon="6.86474">
        <ele>994.510289</ele>
        <time>2024-12-05T15:45:06.092Z</time>
      </trkpt>
      <trkpt lat="43.72057" lon="6.86476">
        <ele>993.928999</ele>
        <time>2024-12-05T15:45:17.102Z</time>
      </trkpt>
      <trkpt lat="43.72088" lon="6.86483">
        <ele>993.799889</ele>
        <time>2024-12-05T15:45:26.530Z</time>
      </trkpt>
      <trkpt lat="43.72145" lon="6.86492">
        <ele>993.564141</ele>
        <time>2024-12-05T15:45:44.037Z</time>
      </trkpt>
      <trkpt lat="43.7219" lon="6.86507">
        <ele>993.374204</ele>
        <time>2024-12-05T15:45:57.909Z</time>
      </trkpt>
      <trkpt lat="43.72205" lon="6.86518">
        <ele>993.30363</ele>
        <time>2024-12-05T15:46:02.789Z</time>
      </trkpt>
      <trkpt lat="43.72232" lon="6.86524">
        <ele>993.34446</ele>
        <time>2024-12-05T15:46:10.552Z</time>
      </trkpt>
      <trkpt lat="43.72274" lon="6.86545">
        <ele>993.698563</ele>
        <time>2024-12-05T15:46:23.741Z</time>
      </trkpt>
      <trkpt lat="43.72306" lon="6.86552">
        <ele>993.955346</ele>
        <time>2024-12-05T15:46:33.582Z</time>
      </trkpt>
      <trkpt lat="43.72333" lon="6.86578">
        <ele>994.21908</ele>
        <time>2024-12-05T15:46:43.797Z</time>
      </trkpt>
      <trkpt lat="43.72349" lon="6.86602">
        <ele>994.411673</ele>
        <time>2024-12-05T15:46:51.370Z</time>
      </trkpt>
      <trkpt lat="43.72368" lon="6.86649">
        <ele>994.59729</ele>
        <time>2024-12-05T15:47:03.961Z</time>
      </trkpt>
      <trkpt lat="43.72384" lon="6.86765">
        <ele>992.981964</ele>
        <time>2024-12-05T15:47:29.357Z</time>
      </trkpt>
      <trkpt lat="43.72391" lon="6.86772">
        <ele>992.817302</ele>
        <time>2024-12-05T15:47:31.601Z</time>
      </trkpt>
      <trkpt lat="43.72409" lon="6.86772">
        <ele>992.487002</ele>
        <time>2024-12-05T15:47:35.957Z</time>
      </trkpt>
      <trkpt lat="43.72438" lon="6.86726">
        <ele>991.638923</ele>
        <time>2024-12-05T15:47:46.923Z</time>
      </trkpt>
      <trkpt lat="43.72449" lon="6.86716">
        <ele>991.391532</ele>
        <time>2024-12-05T15:47:50.084Z</time>
      </trkpt>
      <trkpt lat="43.72466" lon="6.86716">
        <ele>990.946723</ele>
        <time>2024-12-05T15:47:54.171Z</time>
      </trkpt>
      <trkpt lat="43.72507" lon="6.86727">
        <ele>989.667481</ele>
        <time>2024-12-05T15:48:04.181Z</time>
      </trkpt>
      <trkpt lat="43.72535" lon="6.86725">
        <ele>988.84396</ele>
        <time>2024-12-05T15:48:10.917Z</time>
      </trkpt>
      <trkpt lat="43.72566" lon="6.8673">
        <ele>987.889911</ele>
        <time>2024-12-05T15:48:19.118Z</time>
      </trkpt>
      <trkpt lat="43.72582" lon="6.8673">
        <ele>987.395531</ele>
        <time>2024-12-05T15:48:23.607Z</time>
      </trkpt>
      <trkpt lat="43.72609" lon="6.86715">
        <ele>986.507883</ele>
        <time>2024-12-05T15:48:31.937Z</time>
      </trkpt>
      <trkpt lat="43.72658" lon="6.86712">
        <ele>985.965649</ele>
        <time>2024-12-05T15:48:46.288Z</time>
      </trkpt>
      <trkpt lat="43.72687" lon="6.86716">
        <ele>986.131631</ele>
        <time>2024-12-05T15:48:55.074Z</time>
      </trkpt>
      <trkpt lat="43.72712" lon="6.8673">
        <ele>986.287292</ele>
        <time>2024-12-05T15:49:03.451Z</time>
      </trkpt>
      <trkpt lat="43.72737" lon="6.86751">
        <ele>986.449924</ele>
        <time>2024-12-05T15:49:12.308Z</time>
      </trkpt>
      <trkpt lat="43.72761" lon="6.8678">
        <ele>986.630549</ele>
        <time>2024-12-05T15:49:22.240Z</time>
      </trkpt>
      <trkpt lat="43.72779" lon="6.86809">
        <ele>986.786898</ele>
        <time>2024-12-05T15:49:30.947Z</time>
      </trkpt>
      <trkpt lat="43.72811" lon="6.86876">
        <ele>986.017952</ele>
        <time>2024-12-05T15:49:48.950Z</time>
      </trkpt>
      <trkpt lat="43.72831" lon="6.86909">
        <ele>985.497911</ele>
        <time>2024-12-05T15:49:57.393Z</time>
      </trkpt>
      <trkpt lat="43.72856" lon="6.86944">
        <ele>984.905832</ele>
        <time>2024-12-05T15:50:06.180Z</time>
      </trkpt>
      <trkpt lat="43.72895" lon="6.8699">
        <ele>984.053458</ele>
        <time>2024-12-05T15:50:19.578Z</time>
      </trkpt>
      <trkpt lat="43.72939" lon="6.8703">
        <ele>983.076383</ele>
        <time>2024-12-05T15:50:33.367Z</time>
      </trkpt>
      <trkpt lat="43.7295" lon="6.87041">
        <ele>982.830485</ele>
        <time>2024-12-05T15:50:36.617Z</time>
      </trkpt>
      <trkpt lat="43.73042" lon="6.87129">
        <ele>980.694937</ele>
        <time>2024-12-05T15:51:08.825Z</time>
      </trkpt>
      <trkpt lat="43.73061" lon="6.87143">
        <ele>980.263344</ele>
        <time>2024-12-05T15:51:15.193Z</time>
      </trkpt>
      <trkpt lat="43.73133" lon="6.87233">
        <ele>978.145259</ele>
        <time>2024-12-05T15:51:41.748Z</time>
      </trkpt>
      <trkpt lat="43.7323" lon="6.87307">
        <ele>975.952325</ele>
        <time>2024-12-05T15:52:10.679Z</time>
      </trkpt>
      <trkpt lat="43.73323" lon="6.87373">
        <ele>974.343099</ele>
        <time>2024-12-05T15:52:39.893Z</time>
      </trkpt>
      <trkpt lat="43.73361" lon="6.87394">
        <ele>973.733091</ele>
        <time>2024-12-05T15:52:51.957Z</time>
      </trkpt>
      <trkpt lat="43.73435" lon="6.87415">
        <ele>973.243018</ele>
        <time>2024-12-05T15:53:14.950Z</time>
      </trkpt>
      <trkpt lat="43.73502" lon="6.87427">
        <ele>972.800152</ele>
        <time>2024-12-05T15:53:35.279Z</time>
      </trkpt>
      <trkpt lat="43.73577" lon="6.87427">
        <ele>971.157371</ele>
        <time>2024-12-05T15:53:55.106Z</time>
      </trkpt>
      <trkpt lat="43.73682" lon="6.87431">
        <ele>967.320116</ele>
        <time>2024-12-05T15:54:20.936Z</time>
      </trkpt>
      <trkpt lat="43.73785" lon="6.8743">
        <ele>965.384745</ele>
        <time>2024-12-05T15:54:46.906Z</time>
      </trkpt>
      <trkpt lat="43.73809" lon="6.87415">
        <ele>965.143245</ele>
        <time>2024-12-05T15:54:53.999Z</time>
      </trkpt>
      <trkpt lat="43.73897" lon="6.87346">
        <ele>964.850386</ele>
        <time>2024-12-05T15:55:25.215Z</time>
      </trkpt>
      <trkpt lat="43.73934" lon="6.87334">
        <ele>966.221894</ele>
        <time>2024-12-05T15:55:38.195Z</time>
      </trkpt>
      <trkpt lat="43.73984" lon="6.87324">
        <ele>967.995949</ele>
        <time>2024-12-05T15:55:55.300Z</time>
      </trkpt>
      <trkpt lat="43.74009" lon="6.87314">
        <ele>968.888447</ele>
        <time>2024-12-05T15:56:03.983Z</time>
      </trkpt>
      <trkpt lat="43.74054" lon="6.87269">
        <ele>970.894781</ele>
        <time>2024-12-05T15:56:22.514Z</time>
      </trkpt>
      <trkpt lat="43.74098" lon="6.87207">
        <ele>973.681477</ele>
        <time>2024-12-05T15:56:42.574Z</time>
      </trkpt>
      <trkpt lat="43.74123" lon="6.87164">
        <ele>975.475375</ele>
        <time>2024-12-05T15:56:55.834Z</time>
      </trkpt>
      <trkpt lat="43.74144" lon="6.87138">
        <ele>976.718486</ele>
        <time>2024-12-05T15:57:05.408Z</time>
      </trkpt>
      <trkpt lat="43.742" lon="6.87056">
        <ele>981.324442</ele>
        <time>2024-12-05T15:57:36.641Z</time>
      </trkpt>
      <trkpt lat="43.74224" lon="6.87038">
        <ele>983.218031</ele>
        <time>2024-12-05T15:57:47.824Z</time>
      </trkpt>
      <trkpt lat="43.74246" lon="6.87029">
        <ele>984.855631</ele>
        <time>2024-12-05T15:57:57.634Z</time>
      </trkpt>
      <trkpt lat="43.74285" lon="6.87007">
        <ele>987.81135</ele>
        <time>2024-12-05T15:58:15.246Z</time>
      </trkpt>
      <trkpt lat="43.74304" lon="6.86997">
        <ele>989.234209</ele>
        <time>2024-12-05T15:58:23.664Z</time>
      </trkpt>
      <trkpt lat="43.74399" lon="6.86936">
        <ele>994.497698</ele>
        <time>2024-12-05T15:59:02.108Z</time>
      </trkpt>
      <trkpt lat="43.74526" lon="6.86831">
        <ele>1000.656536</ele>
        <time>2024-12-05T15:59:49.458Z</time>
      </trkpt>
      <trkpt lat="43.74544" lon="6.86828">
        <ele>1001.36909</ele>
        <time>2024-12-05T15:59:55.278Z</time>
      </trkpt>
      <trkpt lat="43.74557" lon="6.86831">
        <ele>1001.905221</ele>
        <time>2024-12-05T15:59:59.696Z</time>
      </trkpt>
      <trkpt lat="43.7464" lon="6.86893">
        <ele>1005.605578</ele>
        <time>2024-12-05T16:00:31.520Z</time>
      </trkpt>
      <trkpt lat="43.74679" lon="6.86897">
        <ele>1007.861963</ele>
        <time>2024-12-05T16:00:45.802Z</time>
      </trkpt>
      <trkpt lat="43.74706" lon="6.86909">
        <ele>1009.675937</ele>
        <time>2024-12-05T16:00:56.332Z</time>
      </trkpt>
      <trkpt lat="43.74787" lon="6.86914">
        <ele>1014.897953</ele>
        <time>2024-12-05T16:01:28.114Z</time>
      </trkpt>
      <trkpt lat="43.74864" lon="6.86929">
        <ele>1019.408767</ele>
        <time>2024-12-05T16:01:59.153Z</time>
      </trkpt>
      <trkpt lat="43.74901" lon="6.86921">
        <ele>1021.298384</ele>
        <time>2024-12-05T16:02:13.477Z</time>
      </trkpt>
      <trkpt lat="43.74939" lon="6.86909">
        <ele>1023.255595</ele>
        <time>2024-12-05T16:02:27.290Z</time>
      </trkpt>
      <trkpt lat="43.74965" lon="6.86875">
        <ele>1025.080629</ele>
        <time>2024-12-05T16:02:39.227Z</time>
      </trkpt>
      <trkpt lat="43.74982" lon="6.86847">
        <ele>1026.433349</ele>
        <time>2024-12-05T16:02:47.699Z</time>
      </trkpt>
      <trkpt lat="43.74991" lon="6.86821">
        <ele>1027.14969</ele>
        <time>2024-12-05T16:02:54.181Z</time>
      </trkpt>
      <trkpt lat="43.75002" lon="6.868">
        <ele>1027.685734</ele>
        <time>2024-12-05T16:03:00.071Z</time>
      </trkpt>
      <trkpt lat="43.75033" lon="6.86782">
        <ele>1028.647709</ele>
        <time>2024-12-05T16:03:10.592Z</time>
      </trkpt>
      <trkpt lat="43.75055" lon="6.86793">
        <ele>1029.323008</ele>
        <time>2024-12-05T16:03:18.046Z</time>
      </trkpt>
      <trkpt lat="43.75068" lon="6.86793">
        <ele>1029.667839</ele>
        <time>2024-12-05T16:03:21.858Z</time>
      </trkpt>
      <trkpt lat="43.75114" lon="6.86779">
        <ele>1031.034176</ele>
        <time>2024-12-05T16:03:37.160Z</time>
      </trkpt>
      <trkpt lat="43.75136" lon="6.8676">
        <ele>1031.759932</ele>
        <time>2024-12-05T16:03:45.566Z</time>
      </trkpt>
      <trkpt lat="43.75161" lon="6.86731">
        <ele>1033.911167</ele>
        <time>2024-12-05T16:03:56.278Z</time>
      </trkpt>
      <trkpt lat="43.75214" lon="6.86652">
        <ele>1039.44131</ele>
        <time>2024-12-05T16:04:25.817Z</time>
      </trkpt>
      <trkpt lat="43.75222" lon="6.86645">
        <ele>1040.141871</ele>
        <time>2024-12-05T16:04:29.879Z</time>
      </trkpt>
      <trkpt lat="43.75241" lon="6.86642">
        <ele>1041.486784</ele>
        <time>2024-12-05T16:04:37.836Z</time>
      </trkpt>
      <trkpt lat="43.75246" lon="6.86637">
        <ele>1041.897643</ele>
        <time>2024-12-05T16:04:40.334Z</time>
      </trkpt>
      <trkpt lat="43.75248" lon="6.86628">
        <ele>1042.376896</ele>
        <time>2024-12-05T16:04:43.299Z</time>
      </trkpt>
      <trkpt lat="43.75251" lon="6.866">
        <ele>1043.843127</ele>
        <time>2024-12-05T16:04:52.627Z</time>
      </trkpt>
      <trkpt lat="43.75271" lon="6.86579">
        <ele>1046.430386</ele>
        <time>2024-12-05T16:05:04.608Z</time>
      </trkpt>
      <trkpt lat="43.75271" lon="6.86574">
        <ele>1046.926535</ele>
        <time>2024-12-05T16:05:06.519Z</time>
      </trkpt>
      <trkpt lat="43.75245" lon="6.86571">
        <ele>1050.260435</ele>
        <time>2024-12-05T16:05:20.155Z</time>
      </trkpt>
      <trkpt lat="43.75228" lon="6.86535">
        <ele>1054.257045</ele>
        <time>2024-12-05T16:05:37.598Z</time>
      </trkpt>
      <trkpt lat="43.75223" lon="6.86514">
        <ele>1056.302928</ele>
        <time>2024-12-05T16:05:46.782Z</time>
      </trkpt>
      <trkpt lat="43.75228" lon="6.86497">
        <ele>1058.025885</ele>
        <time>2024-12-05T16:05:54.475Z</time>
      </trkpt>
      <trkpt lat="43.75229" lon="6.86445">
        <ele>1062.910759</ele>
        <time>2024-12-05T16:06:16.580Z</time>
      </trkpt>
      <trkpt lat="43.75234" lon="6.86435">
        <ele>1063.964975</ele>
        <time>2024-12-05T16:06:21.413Z</time>
      </trkpt>
      <trkpt lat="43.7525" lon="6.86421">
        <ele>1066.485061</ele>
        <time>2024-12-05T16:06:32.997Z</time>
      </trkpt>
      <trkpt lat="43.75283" lon="6.86396">
        <ele>1070.59715</ele>
        <time>2024-12-05T16:06:54.676Z</time>
      </trkpt>
      <trkpt lat="43.75314" lon="6.86324">
        <ele>1076.894404</ele>
        <time>2024-12-05T16:07:26.150Z</time>
      </trkpt>
      <trkpt lat="43.75356" lon="6.86329">
        <ele>1081.279084</ele>
        <time>2024-12-05T16:07:45.994Z</time>
      </trkpt>
      <trkpt lat="43.75341" lon="6.86276">
        <ele>1085.487654</ele>
        <time>2024-12-05T16:08:03.748Z</time>
      </trkpt>
      <trkpt lat="43.75335" lon="6.86263">
        <ele>1086.557531</ele>
        <time>2024-12-05T16:08:07.512Z</time>
      </trkpt>
      <trkpt lat="43.75327" lon="6.86248">
        <ele>1087.130489</ele>
        <time>2024-12-05T16:08:11.280Z</time>
      </trkpt>
      <trkpt lat="43.7531" lon="6.86193">
        <ele>1089.033788</ele>
        <time>2024-12-05T16:08:22.206Z</time>
      </trkpt>
      <trkpt lat="43.75288" lon="6.8616">
        <ele>1090.479327</ele>
        <time>2024-12-05T16:08:30.118Z</time>
      </trkpt>
      <trkpt lat="43.75247" lon="6.8613">
        <ele>1092.537333</ele>
        <time>2024-12-05T16:08:42.017Z</time>
      </trkpt>
      <trkpt lat="43.75234" lon="6.86117">
        <ele>1093.26176</ele>
        <time>2024-12-05T16:08:46.318Z</time>
      </trkpt>
      <trkpt lat="43.75225" lon="6.86103">
        <ele>1093.851928</ele>
        <time>2024-12-05T16:08:49.772Z</time>
      </trkpt>
      <trkpt lat="43.75208" lon="6.85939">
        <ele>1101.16743</ele>
        <time>2024-12-05T16:09:26.028Z</time>
      </trkpt>
      <trkpt lat="43.75211" lon="6.85909">
        <ele>1102.532029</ele>
        <time>2024-12-05T16:09:33.797Z</time>
      </trkpt>
      <trkpt lat="43.75211" lon="6.85852">
        <ele>1105.112279</ele>
        <time>2024-12-05T16:09:47.866Z</time>
      </trkpt>
      <trkpt lat="43.75183" lon="6.85773">
        <ele>1110.129302</ele>
        <time>2024-12-05T16:10:08.341Z</time>
      </trkpt>
      <trkpt lat="43.75146" lon="6.85702">
        <ele>1115.343969</ele>
        <time>2024-12-05T16:10:29.214Z</time>
      </trkpt>
      <trkpt lat="43.75136" lon="6.85686">
        <ele>1116.601407</ele>
        <time>2024-12-05T16:10:34.751Z</time>
      </trkpt>
      <trkpt lat="43.75111" lon="6.85667">
        <ele>1118.90489</ele>
        <time>2024-12-05T16:10:45.597Z</time>
      </trkpt>
      <trkpt lat="43.75098" lon="6.85649">
        <ele>1120.460811</ele>
        <time>2024-12-05T16:10:53.520Z</time>
      </trkpt>
      <trkpt lat="43.75091" lon="6.8563">
        <ele>1122.089153</ele>
        <time>2024-12-05T16:11:00.222Z</time>
      </trkpt>
      <trkpt lat="43.75085" lon="6.85595">
        <ele>1124.862006</ele>
        <time>2024-12-05T16:11:12.141Z</time>
      </trkpt>
      <trkpt lat="43.75086" lon="6.85534">
        <ele>1129.609704</ele>
        <time>2024-12-05T16:11:33.635Z</time>
      </trkpt>
      <trkpt lat="43.75083" lon="6.85523">
        <ele>1130.496234</ele>
        <time>2024-12-05T16:11:37.646Z</time>
      </trkpt>
      <trkpt lat="43.75068" lon="6.85494">
        <ele>1133.288292</ele>
        <time>2024-12-05T16:11:49.789Z</time>
      </trkpt>
      <trkpt lat="43.75067" lon="6.85479">
        <ele>1134.429864</ele>
        <time>2024-12-05T16:11:54.561Z</time>
      </trkpt>
      <trkpt lat="43.75059" lon="6.85459">
        <ele>1136.198109</ele>
        <time>2024-12-05T16:12:01.577Z</time>
      </trkpt>
      <trkpt lat="43.75048" lon="6.85431">
        <ele>1138.680902</ele>
        <time>2024-12-05T16:12:10.672Z</time>
      </trkpt>
      <trkpt lat="43.75018" lon="6.85344">
        <ele>1142.063276</ele>
        <time>2024-12-05T16:12:32.364Z</time>
      </trkpt>
      <trkpt lat="43.75014" lon="6.85312">
        <ele>1142.955361</ele>
        <time>2024-12-05T16:12:38.248Z</time>
      </trkpt>
      <trkpt lat="43.75013" lon="6.85285">
        <ele>1143.714754</ele>
        <time>2024-12-05T16:12:42.900Z</time>
      </trkpt>
      <trkpt lat="43.75009" lon="6.85249">
        <ele>1144.719633</ele>
        <time>2024-12-05T16:12:48.831Z</time>
      </trkpt>
      <trkpt lat="43.75001" lon="6.85226">
        <ele>1145.433011</ele>
        <time>2024-12-05T16:12:53.021Z</time>
      </trkpt>
      <trkpt lat="43.74979" lon="6.85144">
        <ele>1147.156051</ele>
        <time>2024-12-05T16:13:07.176Z</time>
      </trkpt>
      <trkpt lat="43.74971" lon="6.85106">
        <ele>1147.622634</ele>
        <time>2024-12-05T16:13:13.844Z</time>
      </trkpt>
      <trkpt lat="43.74966" lon="6.85051">
        <ele>1148.252982</ele>
        <time>2024-12-05T16:13:22.831Z</time>
      </trkpt>
      <trkpt lat="43.74962" lon="6.85027">
        <ele>1148.542663</ele>
        <time>2024-12-05T16:13:26.995Z</time>
      </trkpt>
      <trkpt lat="43.74955" lon="6.85006">
        <ele>1148.813136</ele>
        <time>2024-12-05T16:13:30.894Z</time>
      </trkpt>
      <trkpt lat="43.74954" lon="6.84995">
        <ele>1148.940295</ele>
        <time>2024-12-05T16:13:32.756Z</time>
      </trkpt>
      <trkpt lat="43.74959" lon="6.84975">
        <ele>1149.175868</ele>
        <time>2024-12-05T16:13:36.168Z</time>
      </trkpt>
      <trkpt lat="43.74959" lon="6.84962">
        <ele>1149.325779</ele>
        <time>2024-12-05T16:13:38.315Z</time>
      </trkpt>
      <trkpt lat="43.74956" lon="6.84952">
        <ele>1149.461037</ele>
        <time>2024-12-05T16:13:40.268Z</time>
      </trkpt>
      <trkpt lat="43.74942" lon="6.84938">
        <ele>1149.797092</ele>
        <time>2024-12-05T16:13:44.122Z</time>
      </trkpt>
      <trkpt lat="43.74936" lon="6.84928">
        <ele>1150.001588</ele>
        <time>2024-12-05T16:13:46.272Z</time>
      </trkpt>
      <trkpt lat="43.7493" lon="6.84905">
        <ele>1150.371211</ele>
        <time>2024-12-05T16:13:50.110Z</time>
      </trkpt>
      <trkpt lat="43.74922" lon="6.84848">
        <ele>1151.287688</ele>
        <time>2024-12-05T16:13:59.573Z</time>
      </trkpt>
      <trkpt lat="43.74911" lon="6.84809">
        <ele>1151.923444</ele>
        <time>2024-12-05T16:14:06.121Z</time>
      </trkpt>
      <trkpt lat="43.74909" lon="6.84788">
        <ele>1152.262283</ele>
        <time>2024-12-05T16:14:09.626Z</time>
      </trkpt>
      <trkpt lat="43.74909" lon="6.84767">
        <ele>1152.593709</ele>
        <time>2024-12-05T16:14:13.181Z</time>
      </trkpt>
      <trkpt lat="43.74916" lon="6.84745">
        <ele>1152.953153</ele>
        <time>2024-12-05T16:14:17.290Z</time>
      </trkpt>
      <trkpt lat="43.74917" lon="6.84734">
        <ele>1153.127777</ele>
        <time>2024-12-05T16:14:19.346Z</time>
      </trkpt>
      <trkpt lat="43.74915" lon="6.84709">
        <ele>1153.767227</ele>
        <time>2024-12-05T16:14:24.133Z</time>
      </trkpt>
      <trkpt lat="43.74911" lon="6.84691">
        <ele>1154.691992</ele>
        <time>2024-12-05T16:14:27.835Z</time>
      </trkpt>
      <trkpt lat="43.74895" lon="6.84638">
        <ele>1157.575566</ele>
        <time>2024-12-05T16:14:40.188Z</time>
      </trkpt>
      <trkpt lat="43.74908" lon="6.84619">
        <ele>1158.920428</ele>
        <time>2024-12-05T16:14:47.742Z</time>
      </trkpt>
      <trkpt lat="43.74915" lon="6.84614">
        <ele>1159.437206</ele>
        <time>2024-12-05T16:14:50.682Z</time>
      </trkpt>
      <trkpt lat="43.74948" lon="6.84609">
        <ele>1161.746039</ele>
        <time>2024-12-05T16:15:04.437Z</time>
      </trkpt>
      <trkpt lat="43.74973" lon="6.84579">
        <ele>1164.023269</ele>
        <time>2024-12-05T16:15:18.771Z</time>
      </trkpt>
      <trkpt lat="43.74983" lon="6.8457">
        <ele>1164.850996</ele>
        <time>2024-12-05T16:15:24.206Z</time>
      </trkpt>
      <trkpt lat="43.75003" lon="6.8456">
        <ele>1166.464934</ele>
        <time>2024-12-05T16:15:34.244Z</time>
      </trkpt>
      <trkpt lat="43.75057" lon="6.84548">
        <ele>1171.023561</ele>
        <time>2024-12-05T16:15:58.999Z</time>
      </trkpt>
      <trkpt lat="43.75064" lon="6.84564">
        <ele>1172.18719</ele>
        <time>2024-12-05T16:16:05.127Z</time>
      </trkpt>
      <trkpt lat="43.75069" lon="6.84568">
        <ele>1172.634663</ele>
        <time>2024-12-05T16:16:07.518Z</time>
      </trkpt>
      <trkpt lat="43.7508" lon="6.84562">
        <ele>1173.606065</ele>
        <time>2024-12-05T16:16:12.573Z</time>
      </trkpt>
      <trkpt lat="43.75084" lon="6.84555">
        <ele>1174.117154</ele>
        <time>2024-12-05T16:16:15.208Z</time>
      </trkpt>
      <trkpt lat="43.75084" lon="6.84549">
        <ele>1174.483517</ele>
        <time>2024-12-05T16:16:17.084Z</time>
      </trkpt>
      <trkpt lat="43.75078" lon="6.84509">
        <ele>1176.970897</ele>
        <time>2024-12-05T16:16:29.736Z</time>
      </trkpt>
      <trkpt lat="43.75082" lon="6.84502">
        <ele>1177.47081</ele>
        <time>2024-12-05T16:16:32.283Z</time>
      </trkpt>
      <trkpt lat="43.75099" lon="6.84495">
        <ele>1178.955354</ele>
        <time>2024-12-05T16:16:39.534Z</time>
      </trkpt>
      <trkpt lat="43.75104" lon="6.84497">
        <ele>1179.358834</ele>
        <time>2024-12-05T16:16:41.435Z</time>
      </trkpt>
      <trkpt lat="43.7512" lon="6.84524">
        <ele>1181.395301</ele>
        <time>2024-12-05T16:16:51.423Z</time>
      </trkpt>
      <trkpt lat="43.7513" lon="6.84551">
        <ele>1183.019589</ele>
        <time>2024-12-05T16:16:59.816Z</time>
      </trkpt>
      <trkpt lat="43.75134" lon="6.84584">
        <ele>1184.834869</ele>
        <time>2024-12-05T16:17:09.037Z</time>
      </trkpt>
      <trkpt lat="43.75155" lon="6.84646">
        <ele>1188.52098</ele>
        <time>2024-12-05T16:17:27.190Z</time>
      </trkpt>
      <trkpt lat="43.75159" lon="6.84665">
        <ele>1189.546446</ele>
        <time>2024-12-05T16:17:32.430Z</time>
      </trkpt>
      <trkpt lat="43.75158" lon="6.8468">
        <ele>1190.362843</ele>
        <time>2024-12-05T16:17:36.750Z</time>
      </trkpt>
      <trkpt lat="43.75151" lon="6.84717">
        <ele>1192.431975</ele>
        <time>2024-12-05T16:17:48.333Z</time>
      </trkpt>
      <trkpt lat="43.75151" lon="6.84735">
        <ele>1193.398402</ele>
        <time>2024-12-05T16:17:54.079Z</time>
      </trkpt>
      <trkpt lat="43.75159" lon="6.84756">
        <ele>1195.009528</ele>
        <time>2024-12-05T16:18:01.805Z</time>
      </trkpt>
      <trkpt lat="43.75161" lon="6.84784">
        <ele>1197.775424</ele>
        <time>2024-12-05T16:18:12.151Z</time>
      </trkpt>
      <trkpt lat="43.75163" lon="6.84788">
        <ele>1198.171952</ele>
        <time>2024-12-05T16:18:13.678Z</time>
      </trkpt>
      <trkpt lat="43.75166" lon="6.84789">
        <ele>1198.626205</ele>
        <time>2024-12-05T16:18:15.431Z</time>
      </trkpt>
      <trkpt lat="43.7517" lon="6.84785">
        <ele>1199.210761</ele>
        <time>2024-12-05T16:18:17.735Z</time>
      </trkpt>
      <trkpt lat="43.75171" lon="6.84764">
        <ele>1201.225521</ele>
        <time>2024-12-05T16:18:25.836Z</time>
      </trkpt>
      <trkpt lat="43.75176" lon="6.84746">
        <ele>1203.112237</ele>
        <time>2024-12-05T16:18:33.645Z</time>
      </trkpt>
      <trkpt lat="43.75193" lon="6.84719">
        <ele>1206.570086</ele>
        <time>2024-12-05T16:18:48.650Z</time>
      </trkpt>
      <trkpt lat="43.75208" lon="6.84688">
        <ele>1210.102932</ele>
        <time>2024-12-05T16:19:04.724Z</time>
      </trkpt>
      <trkpt lat="43.75215" lon="6.84668">
        <ele>1212.196113</ele>
        <time>2024-12-05T16:19:14.579Z</time>
      </trkpt>
      <trkpt lat="43.75225" lon="6.84613">
        <ele>1217.667504</ele>
        <time>2024-12-05T16:19:40.702Z</time>
      </trkpt>
      <trkpt lat="43.75254" lon="6.84532">
        <ele>1225.725787</ele>
        <time>2024-12-05T16:20:19.210Z</time>
      </trkpt>
      <trkpt lat="43.75265" lon="6.84481">
        <ele>1230.447445</ele>
        <time>2024-12-05T16:20:38.513Z</time>
      </trkpt>
      <trkpt lat="43.75271" lon="6.84435">
        <ele>1234.593253</ele>
        <time>2024-12-05T16:20:54.876Z</time>
      </trkpt>
      <trkpt lat="43.7527" lon="6.84408">
        <ele>1237.059732</ele>
        <time>2024-12-05T16:21:04.572Z</time>
      </trkpt>
      <trkpt lat="43.75237" lon="6.84363">
        <ele>1242.776765</ele>
        <time>2024-12-05T16:21:26.754Z</time>
      </trkpt>
      <trkpt lat="43.75233" lon="6.84348">
        <ele>1244.262854</ele>
        <time>2024-12-05T16:21:32.466Z</time>
      </trkpt>
      <trkpt lat="43.75232" lon="6.84336">
        <ele>1245.363302</ele>
        <time>2024-12-05T16:21:36.798Z</time>
      </trkpt>
      <trkpt lat="43.75235" lon="6.84326">
        <ele>1246.397414</ele>
        <time>2024-12-05T16:21:40.847Z</time>
      </trkpt>
      <trkpt lat="43.7524" lon="6.8432">
        <ele>1247.181332</ele>
        <time>2024-12-05T16:21:44.071Z</time>
      </trkpt>
      <trkpt lat="43.75258" lon="6.84358">
        <ele>1251.277588</ele>
        <time>2024-12-05T16:22:01.008Z</time>
      </trkpt>
      <trkpt lat="43.75303" lon="6.84401">
        <ele>1258.169114</ele>
        <time>2024-12-05T16:22:32.669Z</time>
      </trkpt>
      <trkpt lat="43.75329" lon="6.84422">
        <ele>1261.941749</ele>
        <time>2024-12-05T16:22:50.993Z</time>
      </trkpt>
      <trkpt lat="43.75334" lon="6.84417">
        <ele>1262.768125</ele>
        <time>2024-12-05T16:22:54.818Z</time>
      </trkpt>
      <trkpt lat="43.75349" lon="6.84379">
        <ele>1266.135007</ele>
        <time>2024-12-05T16:23:12.409Z</time>
      </trkpt>
      <trkpt lat="43.75365" lon="6.84314">
        <ele>1271.54506</ele>
        <time>2024-12-05T16:23:38.166Z</time>
      </trkpt>
      <trkpt lat="43.75368" lon="6.8431">
        <ele>1271.983923</ele>
        <time>2024-12-05T16:23:40.088Z</time>
      </trkpt>
      <trkpt lat="43.75371" lon="6.84302">
        <ele>1272.684852</ele>
        <time>2024-12-05T16:23:43.200Z</time>
      </trkpt>
      <trkpt lat="43.75375" lon="6.84301">
        <ele>1273.082562</ele>
        <time>2024-12-05T16:23:44.899Z</time>
      </trkpt>
      <trkpt lat="43.75376" lon="6.84305">
        <ele>1273.439716</ele>
        <time>2024-12-05T16:23:46.428Z</time>
      </trkpt>
      <trkpt lat="43.75376" lon="6.84321">
        <ele>1274.735663</ele>
        <time>2024-12-05T16:23:51.902Z</time>
      </trkpt>
      <trkpt lat="43.75382" lon="6.84359">
        <ele>1277.782549</ele>
        <time>2024-12-05T16:24:04.213Z</time>
      </trkpt>
      <trkpt lat="43.75382" lon="6.84389">
        <ele>1280.151064</ele>
        <time>2024-12-05T16:24:13.520Z</time>
      </trkpt>
      <trkpt lat="43.75378" lon="6.84424">
        <ele>1282.840651</ele>
        <time>2024-12-05T16:24:24.505Z</time>
      </trkpt>
      <trkpt lat="43.75378" lon="6.84481">
        <ele>1286.911141</ele>
        <time>2024-12-05T16:24:42.946Z</time>
      </trkpt>
      <trkpt lat="43.7538" lon="6.84492">
        <ele>1287.723222</ele>
        <time>2024-12-05T16:24:46.781Z</time>
      </trkpt>
      <trkpt lat="43.75389" lon="6.84513">
        <ele>1289.490348</ele>
        <time>2024-12-05T16:24:55.184Z</time>
      </trkpt>
      <trkpt lat="43.75391" lon="6.84547">
        <ele>1291.853706</ele>
        <time>2024-12-05T16:25:06.710Z</time>
      </trkpt>
      <trkpt lat="43.75398" lon="6.84593">
        <ele>1295.202267</ele>
        <time>2024-12-05T16:25:23.104Z</time>
      </trkpt>
      <trkpt lat="43.75417" lon="6.84635">
        <ele>1298.676903</ele>
        <time>2024-12-05T16:25:39.830Z</time>
      </trkpt>
      <trkpt lat="43.75425" lon="6.84661">
        <ele>1300.900666</ele>
        <time>2024-12-05T16:25:49.745Z</time>
      </trkpt>
      <trkpt lat="43.75431" lon="6.84688">
        <ele>1303.352814</ele>
        <time>2024-12-05T16:25:59.199Z</time>
      </trkpt>
      <trkpt lat="43.75436" lon="6.8473">
        <ele>1306.993553</ele>
        <time>2024-12-05T16:26:13.604Z</time>
      </trkpt>
      <trkpt lat="43.75438" lon="6.84732">
        <ele>1307.270449</ele>
        <time>2024-12-05T16:26:14.675Z</time>
      </trkpt>
      <trkpt lat="43.75439" lon="6.8473">
        <ele>1307.509502</ele>
        <time>2024-12-05T16:26:15.625Z</time>
      </trkpt>
      <trkpt lat="43.75451" lon="6.84646">
        <ele>1314.878839</ele>
        <time>2024-12-05T16:26:46.855Z</time>
      </trkpt>
      <trkpt lat="43.75458" lon="6.8462">
        <ele>1317.301165</ele>
        <time>2024-12-05T16:26:58.330Z</time>
      </trkpt>
      <trkpt lat="43.75479" lon="6.84563">
        <ele>1322.669176</ele>
        <time>2024-12-05T16:27:26.364Z</time>
      </trkpt>
      <trkpt lat="43.75479" lon="6.84534">
        <ele>1324.75663</ele>
        <time>2024-12-05T16:27:39.275Z</time>
      </trkpt>
      <trkpt lat="43.75482" lon="6.84517">
        <ele>1326.004497</ele>
        <time>2024-12-05T16:27:46.998Z</time>
      </trkpt>
      <trkpt lat="43.75489" lon="6.84502">
        <ele>1327.365655</ele>
        <time>2024-12-05T16:27:55.265Z</time>
      </trkpt>
      <trkpt lat="43.75499" lon="6.84499">
        <ele>1328.371979</ele>
        <time>2024-12-05T16:28:01.227Z</time>
      </trkpt>
      <trkpt lat="43.75522" lon="6.84512">
        <ele>1330.777632</ele>
        <time>2024-12-05T16:28:14.488Z</time>
      </trkpt>
      <trkpt lat="43.75549" lon="6.84539">
        <ele>1334.100915</ele>
        <time>2024-12-05T16:28:30.236Z</time>
      </trkpt>
      <trkpt lat="43.75578" lon="6.8455">
        <ele>1337.124203</ele>
        <time>2024-12-05T16:28:42.149Z</time>
      </trkpt>
      <trkpt lat="43.75621" lon="6.84573">
        <ele>1339.041611</ele>
        <time>2024-12-05T16:28:56.502Z</time>
      </trkpt>
      <trkpt lat="43.75649" lon="6.84559">
        <ele>1338.376521</ele>
        <time>2024-12-05T16:29:05.043Z</time>
      </trkpt>
      <trkpt lat="43.75707" lon="6.84561">
        <ele>1337.098102</ele>
        <time>2024-12-05T16:29:19.525Z</time>
      </trkpt>
      <trkpt lat="43.75752" lon="6.8454">
        <ele>1336.056326</ele>
        <time>2024-12-05T16:29:31.213Z</time>
      </trkpt>
      <trkpt lat="43.75803" lon="6.84536">
        <ele>1334.361307</ele>
        <time>2024-12-05T16:29:43.863Z</time>
      </trkpt>
      <trkpt lat="43.75839" lon="6.84552">
        <ele>1332.769335</ele>
        <time>2024-12-05T16:29:53.243Z</time>
      </trkpt>
      <trkpt lat="43.75852" lon="6.84555">
        <ele>1332.185185</ele>
        <time>2024-12-05T16:29:56.689Z</time>
      </trkpt>
      <trkpt lat="43.7586" lon="6.84547">
        <ele>1331.787522</ele>
        <time>2024-12-05T16:29:59.041Z</time>
      </trkpt>
      <trkpt lat="43.75888" lon="6.84425">
        <ele>1327.824193</ele>
        <time>2024-12-05T16:30:22.191Z</time>
      </trkpt>
      <trkpt lat="43.75912" lon="6.84399">
        <ele>1326.353068</ele>
        <time>2024-12-05T16:30:29.274Z</time>
      </trkpt>
      <trkpt lat="43.75924" lon="6.84318">
        <ele>1323.388718</ele>
        <time>2024-12-05T16:30:43.410Z</time>
      </trkpt>
      <trkpt lat="43.75947" lon="6.84251">
        <ele>1320.736464</ele>
        <time>2024-12-05T16:30:56.003Z</time>
      </trkpt>
      <trkpt lat="43.75984" lon="6.84222">
        <ele>1319.284445</ele>
        <time>2024-12-05T16:31:06.341Z</time>
      </trkpt>
      <trkpt lat="43.76001" lon="6.84166">
        <ele>1320.389395</ele>
        <time>2024-12-05T16:31:18.875Z</time>
      </trkpt>
      <trkpt lat="43.76004" lon="6.84132">
        <ele>1321.035307</ele>
        <time>2024-12-05T16:31:26.709Z</time>
      </trkpt>
      <trkpt lat="43.76004" lon="6.84098">
        <ele>1321.65732</ele>
        <time>2024-12-05T16:31:34.222Z</time>
      </trkpt>
      <trkpt lat="43.76004" lon="6.84098">
        <ele>1321.65732</ele>
        <time>2024-12-05T16:31:34.397Z</time>
      </trkpt>
      <trkpt lat="43.76004" lon="6.84098">
        <ele>1321.65732</ele>
        <time>2024-12-05T16:31:34.397Z</time>
      </trkpt>
      <trkpt lat="43.76004" lon="6.84082">
        <ele>1321.956987</ele>
        <time>2024-12-05T16:31:39.412Z</time>
      </trkpt>
      <trkpt lat="43.76007" lon="6.84063">
        <ele>1322.305303</ele>
        <time>2024-12-05T16:31:45.248Z</time>
      </trkpt>
      <trkpt lat="43.7601" lon="6.84051">
        <ele>1322.552122</ele>
        <time>2024-12-05T16:31:49.389Z</time>
      </trkpt>
      <trkpt lat="43.76012" lon="6.84037">
        <ele>1322.803204</ele>
        <time>2024-12-05T16:31:53.593Z</time>
      </trkpt>
      <trkpt lat="43.76013" lon="6.84008">
        <ele>1323.339272</ele>
        <time>2024-12-05T16:32:02.592Z</time>
      </trkpt>
      <trkpt lat="43.76013" lon="6.83992">
        <ele>1323.631038</ele>
        <time>2024-12-05T16:32:07.493Z</time>
      </trkpt>
      <trkpt lat="43.76013" lon="6.83976">
        <ele>1324.661202</ele>
        <time>2024-12-05T16:32:12.505Z</time>
      </trkpt>
      <trkpt lat="43.76014" lon="6.8396">
        <ele>1325.728363</ele>
        <time>2024-12-05T16:32:17.382Z</time>
      </trkpt>
      <trkpt lat="43.76013" lon="6.83945">
        <ele>1326.775539</ele>
        <time>2024-12-05T16:32:22.171Z</time>
      </trkpt>
      <trkpt lat="43.76012" lon="6.8393">
        <ele>1327.779452</ele>
        <time>2024-12-05T16:32:26.749Z</time>
      </trkpt>
      <trkpt lat="43.7601" lon="6.83915">
        <ele>1328.860818</ele>
        <time>2024-12-05T16:32:31.681Z</time>
      </trkpt>
      <trkpt lat="43.76008" lon="6.83899">
        <ele>1329.917738</ele>
        <time>2024-12-05T16:32:36.503Z</time>
      </trkpt>
      <trkpt lat="43.76003" lon="6.83885">
        <ele>1330.981127</ele>
        <time>2024-12-05T16:32:41.355Z</time>
      </trkpt>
      <trkpt lat="43.75991" lon="6.83864">
        <ele>1332.799676</ele>
        <time>2024-12-05T16:32:49.654Z</time>
      </trkpt>
      <trkpt lat="43.75985" lon="6.83855">
        <ele>1333.651849</ele>
        <time>2024-12-05T16:32:53.544Z</time>
      </trkpt>
      <trkpt lat="43.75974" lon="6.83849">
        <ele>1334.745341</ele>
        <time>2024-12-05T16:32:58.535Z</time>
      </trkpt>
      <trkpt lat="43.75965" lon="6.83857">
        <ele>1335.786014</ele>
        <time>2024-12-05T16:33:03.286Z</time>
      </trkpt>
      <trkpt lat="43.75959" lon="6.8387">
        <ele>1336.783392</ele>
        <time>2024-12-05T16:33:07.839Z</time>
      </trkpt>
      <trkpt lat="43.75952" lon="6.8388">
        <ele>1337.757807</ele>
        <time>2024-12-05T16:33:12.287Z</time>
      </trkpt>
      <trkpt lat="43.75938" lon="6.83899">
        <ele>1339.617195</ele>
        <time>2024-12-05T16:33:20.777Z</time>
      </trkpt>
      <trkpt lat="43.75931" lon="6.83908">
        <ele>1340.534102</ele>
        <time>2024-12-05T16:33:24.963Z</time>
      </trkpt>
      <trkpt lat="43.75923" lon="6.83915">
        <ele>1341.523338</ele>
        <time>2024-12-05T16:33:28.963Z</time>
      </trkpt>
      <trkpt lat="43.75913" lon="6.83917">
        <ele>1342.536918</ele>
        <time>2024-12-05T16:33:33.038Z</time>
      </trkpt>
      <trkpt lat="43.75904" lon="6.83914">
        <ele>1343.517373</ele>
        <time>2024-12-05T16:33:36.981Z</time>
      </trkpt>
      <trkpt lat="43.75897" lon="6.83906">
        <ele>1344.544367</ele>
        <time>2024-12-05T16:33:41.111Z</time>
      </trkpt>
      <trkpt lat="43.75891" lon="6.83895">
        <ele>1345.604287</ele>
        <time>2024-12-05T16:33:45.374Z</time>
      </trkpt>
      <trkpt lat="43.75883" lon="6.83887">
        <ele>1346.618137</ele>
        <time>2024-12-05T16:33:49.452Z</time>
      </trkpt>
      <trkpt lat="43.75876" lon="6.83878">
        <ele>1347.612323</ele>
        <time>2024-12-05T16:33:53.450Z</time>
      </trkpt>
      <trkpt lat="43.75868" lon="6.83869">
        <ele>1348.68942</ele>
        <time>2024-12-05T16:33:57.783Z</time>
      </trkpt>
      <trkpt lat="43.75845" lon="6.83845">
        <ele>1351.853222</ele>
        <time>2024-12-05T16:34:10.510Z</time>
      </trkpt>
      <trkpt lat="43.75837" lon="6.83835">
        <ele>1352.952329</ele>
        <time>2024-12-05T16:34:14.931Z</time>
      </trkpt>
      <trkpt lat="43.7583" lon="6.83825">
        <ele>1354.041625</ele>
        <time>2024-12-05T16:34:19.314Z</time>
      </trkpt>
      <trkpt lat="43.75824" lon="6.83815">
        <ele>1355.068071</ele>
        <time>2024-12-05T16:34:23.444Z</time>
      </trkpt>
      <trkpt lat="43.75817" lon="6.83803">
        <ele>1356.218858</ele>
        <time>2024-12-05T16:34:28.074Z</time>
      </trkpt>
      <trkpt lat="43.75812" lon="6.8379">
        <ele>1357.380536</ele>
        <time>2024-12-05T16:34:32.748Z</time>
      </trkpt>
      <trkpt lat="43.75808" lon="6.83776">
        <ele>1358.560068</ele>
        <time>2024-12-05T16:34:37.494Z</time>
      </trkpt>
      <trkpt lat="43.75803" lon="6.83762">
        <ele>1359.701137</ele>
        <time>2024-12-05T16:34:42.085Z</time>
      </trkpt>
      <trkpt lat="43.75796" lon="6.83735">
        <ele>1362.050426</ele>
        <time>2024-12-05T16:34:51.228Z</time>
      </trkpt>
      <trkpt lat="43.75788" lon="6.83715">
        <ele>1363.833083</ele>
        <time>2024-12-05T16:34:58.157Z</time>
      </trkpt>
      <trkpt lat="43.75785" lon="6.83703">
        <ele>1364.86611</ele>
        <time>2024-12-05T16:35:02.172Z</time>
      </trkpt>
      <trkpt lat="43.75782" lon="6.83688">
        <ele>1366.106336</ele>
        <time>2024-12-05T16:35:06.993Z</time>
      </trkpt>
      <trkpt lat="43.75779" lon="6.83675">
        <ele>1367.176817</ele>
        <time>2024-12-05T16:35:11.154Z</time>
      </trkpt>
      <trkpt lat="43.75777" lon="6.83661">
        <ele>1368.313352</ele>
        <time>2024-12-05T16:35:15.572Z</time>
      </trkpt>
      <trkpt lat="43.75776" lon="6.83649">
        <ele>1369.321232</ele>
        <time>2024-12-05T16:35:19.489Z</time>
      </trkpt>
      <trkpt lat="43.75776" lon="6.83636">
        <ele>1370.320586</ele>
        <time>2024-12-05T16:35:23.374Z</time>
      </trkpt>
      <trkpt lat="43.75777" lon="6.83624">
        <ele>1371.335176</ele>
        <time>2024-12-05T16:35:27.317Z</time>
      </trkpt>
      <trkpt lat="43.75774" lon="6.83606">
        <ele>1372.774584</ele>
        <time>2024-12-05T16:35:32.912Z</time>
      </trkpt>
      <trkpt lat="43.7577" lon="6.83592">
        <ele>1373.984607</ele>
        <time>2024-12-05T16:35:37.615Z</time>
      </trkpt>
      <trkpt lat="43.75767" lon="6.83578">
        <ele>1375.152821</ele>
        <time>2024-12-05T16:35:42.155Z</time>
      </trkpt>
      <trkpt lat="43.75756" lon="6.83549">
        <ele>1377.724556</ele>
        <time>2024-12-05T16:35:52.150Z</time>
      </trkpt>
      <trkpt lat="43.75744" lon="6.83521">
        <ele>1380.296368</ele>
        <time>2024-12-05T16:36:02.283Z</time>
      </trkpt>
      <trkpt lat="43.75739" lon="6.83508">
        <ele>1381.410948</ele>
        <time>2024-12-05T16:36:06.862Z</time>
      </trkpt>
      <trkpt lat="43.7573" lon="6.83481">
        <ele>1383.678219</ele>
        <time>2024-12-05T16:36:16.175Z</time>
      </trkpt>
      <trkpt lat="43.75725" lon="6.83467">
        <ele>1384.829558</ele>
        <time>2024-12-05T16:36:20.904Z</time>
      </trkpt>
      <trkpt lat="43.7572" lon="6.83454">
        <ele>1385.964316</ele>
        <time>2024-12-05T16:36:25.565Z</time>
      </trkpt>
      <trkpt lat="43.75715" lon="6.8344">
        <ele>1387.170097</ele>
        <time>2024-12-05T16:36:30.518Z</time>
      </trkpt>
      <trkpt lat="43.75708" lon="6.83426">
        <ele>1388.404393</ele>
        <time>2024-12-05T16:36:35.587Z</time>
      </trkpt>
      <trkpt lat="43.75703" lon="6.83416">
        <ele>1389.360043</ele>
        <time>2024-12-05T16:36:39.511Z</time>
      </trkpt>
      <trkpt lat="43.75696" lon="6.83404">
        <ele>1390.572778</ele>
        <time>2024-12-05T16:36:44.492Z</time>
      </trkpt>
      <trkpt lat="43.75686" lon="6.83397">
        <ele>1391.706208</ele>
        <time>2024-12-05T16:36:49.146Z</time>
      </trkpt>
      <trkpt lat="43.75678" lon="6.83408">
        <ele>1392.811227</ele>
        <time>2024-12-05T16:36:53.683Z</time>
      </trkpt>
      <trkpt lat="43.75677" lon="6.83422">
        <ele>1393.928928</ele>
        <time>2024-12-05T16:36:58.272Z</time>
      </trkpt>
      <trkpt lat="43.75678" lon="6.83436">
        <ele>1394.980417</ele>
        <time>2024-12-05T16:37:02.589Z</time>
      </trkpt>
      <trkpt lat="43.75679" lon="6.83451">
        <ele>1396.111007</ele>
        <time>2024-12-05T16:37:07.231Z</time>
      </trkpt>
      <trkpt lat="43.75678" lon="6.83508">
        <ele>1400.235615</ele>
        <time>2024-12-05T16:37:24.971Z</time>
      </trkpt>
      <trkpt lat="43.7568" lon="6.83522">
        <ele>1401.196483</ele>
        <time>2024-12-05T16:37:29.360Z</time>
      </trkpt>
      <trkpt lat="43.75681" lon="6.83536">
        <ele>1402.152556</ele>
        <time>2024-12-05T16:37:33.726Z</time>
      </trkpt>
      <trkpt lat="43.75681" lon="6.8355">
        <ele>1403.103441</ele>
        <time>2024-12-05T16:37:38.069Z</time>
      </trkpt>
      <trkpt lat="43.75681" lon="6.83564">
        <ele>1404.0343</ele>
        <time>2024-12-05T16:37:42.321Z</time>
      </trkpt>
      <trkpt lat="43.75678" lon="6.83593">
        <ele>1405.992483</ele>
        <time>2024-12-05T16:37:51.263Z</time>
      </trkpt>
      <trkpt lat="43.75672" lon="6.83606">
        <ele>1407.050102</ele>
        <time>2024-12-05T16:37:56.092Z</time>
      </trkpt>
      <trkpt lat="43.75663" lon="6.83614">
        <ele>1408.098797</ele>
        <time>2024-12-05T16:38:00.880Z</time>
      </trkpt>
      <trkpt lat="43.75652" lon="6.8361">
        <ele>1409.129189</ele>
        <time>2024-12-05T16:38:05.585Z</time>
      </trkpt>
      <trkpt lat="43.75643" lon="6.83599">
        <ele>1410.218198</ele>
        <time>2024-12-05T16:38:10.557Z</time>
      </trkpt>
      <trkpt lat="43.75637" lon="6.83587">
        <ele>1411.286042</ele>
        <time>2024-12-05T16:38:15.432Z</time>
      </trkpt>
      <trkpt lat="43.75633" lon="6.83572">
        <ele>1412.30777</ele>
        <time>2024-12-05T16:38:20.096Z</time>
      </trkpt>
      <trkpt lat="43.75627" lon="6.8356">
        <ele>1413.331648</ele>
        <time>2024-12-05T16:38:24.770Z</time>
      </trkpt>
      <trkpt lat="43.75619" lon="6.8355">
        <ele>1414.33421</ele>
        <time>2024-12-05T16:38:29.346Z</time>
      </trkpt>
      <trkpt lat="43.75613" lon="6.83538">
        <ele>1415.309637</ele>
        <time>2024-12-05T16:38:33.799Z</time>
      </trkpt>
      <trkpt lat="43.75598" lon="6.83515">
        <ele>1417.192065</ele>
        <time>2024-12-05T16:38:43.207Z</time>
      </trkpt>
      <trkpt lat="43.75591" lon="6.83507">
        <ele>1418.032419</ele>
        <time>2024-12-05T16:38:47.425Z</time>
      </trkpt>
      <trkpt lat="43.75583" lon="6.83495">
        <ele>1419.010923</ele>
        <time>2024-12-05T16:38:52.335Z</time>
      </trkpt>
      <trkpt lat="43.75576" lon="6.8348">
        <ele>1420.14723</ele>
        <time>2024-12-05T16:38:58.038Z</time>
      </trkpt>
      <trkpt lat="43.75568" lon="6.83468">
        <ele>1421.106473</ele>
        <time>2024-12-05T16:39:02.852Z</time>
      </trkpt>
      <trkpt lat="43.75561" lon="6.83457">
        <ele>1422.034568</ele>
        <time>2024-12-05T16:39:07.509Z</time>
      </trkpt>
      <trkpt lat="43.75552" lon="6.83445">
        <ele>1423.087076</ele>
        <time>2024-12-05T16:39:12.791Z</time>
      </trkpt>
      <trkpt lat="43.75536" lon="6.83426">
        <ele>1424.904488</ele>
        <time>2024-12-05T16:39:21.910Z</time>
      </trkpt>
      <trkpt lat="43.75529" lon="6.83417">
        <ele>1425.735945</ele>
        <time>2024-12-05T16:39:26.082Z</time>
      </trkpt>
      <trkpt lat="43.75523" lon="6.83405">
        <ele>1426.643429</ele>
        <time>2024-12-05T16:39:30.635Z</time>
      </trkpt>
      <trkpt lat="43.75518" lon="6.83391">
        <ele>1427.577996</ele>
        <time>2024-12-05T16:39:35.324Z</time>
      </trkpt>
      <trkpt lat="43.75511" lon="6.83365">
        <ele>1429.279468</ele>
        <time>2024-12-05T16:39:43.861Z</time>
      </trkpt>
      <trkpt lat="43.75505" lon="6.83353">
        <ele>1430.165544</ele>
        <time>2024-12-05T16:39:48.306Z</time>
      </trkpt>
      <trkpt lat="43.75499" lon="6.83342">
        <ele>1431.03854</ele>
        <time>2024-12-05T16:39:52.827Z</time>
      </trkpt>
      <trkpt lat="43.75493" lon="6.83329">
        <ele>1431.908675</ele>
        <time>2024-12-05T16:39:57.649Z</time>
      </trkpt>
      <trkpt lat="43.75488" lon="6.83316">
        <ele>1432.73821</ele>
        <time>2024-12-05T16:40:02.246Z</time>
      </trkpt>
      <trkpt lat="43.75482" lon="6.83305">
        <ele>1433.472372</ele>
        <time>2024-12-05T16:40:06.314Z</time>
      </trkpt>
      <trkpt lat="43.75474" lon="6.83297">
        <ele>1434.237068</ele>
        <time>2024-12-05T16:40:10.552Z</time>
      </trkpt>
      <trkpt lat="43.75464" lon="6.83294">
        <ele>1435.026566</ele>
        <time>2024-12-05T16:40:14.926Z</time>
      </trkpt>
      <trkpt lat="43.75454" lon="6.83293">
        <ele>1435.847759</ele>
        <time>2024-12-05T16:40:19.476Z</time>
      </trkpt>
      <trkpt lat="43.75443" lon="6.83295">
        <ele>1436.656898</ele>
        <time>2024-12-05T16:40:23.960Z</time>
      </trkpt>
      <trkpt lat="43.75434" lon="6.833">
        <ele>1437.46706</ele>
        <time>2024-12-05T16:40:28.449Z</time>
      </trkpt>
      <trkpt lat="43.75423" lon="6.83304">
        <ele>1438.274116</ele>
        <time>2024-12-05T16:40:32.920Z</time>
      </trkpt>
      <trkpt lat="43.75415" lon="6.83301">
        <ele>1438.973717</ele>
        <time>2024-12-05T16:40:36.796Z</time>
      </trkpt>
      <trkpt lat="43.75431" lon="6.83288">
        <ele>1440.409321</ele>
        <time>2024-12-05T16:40:44.749Z</time>
      </trkpt>
      <trkpt lat="43.75436" lon="6.83277">
        <ele>1441.18872</ele>
        <time>2024-12-05T16:40:49.067Z</time>
      </trkpt>
      <trkpt lat="43.75445" lon="6.83269">
        <ele>1442.006462</ele>
        <time>2024-12-05T16:40:53.596Z</time>
      </trkpt>
      <trkpt lat="43.75455" lon="6.83265">
        <ele>1442.762691</ele>
        <time>2024-12-05T16:40:57.785Z</time>
      </trkpt>
      <trkpt lat="43.75462" lon="6.83255">
        <ele>1443.589605</ele>
        <time>2024-12-05T16:41:02.365Z</time>
      </trkpt>
      <trkpt lat="43.75473" lon="6.8325">
        <ele>1444.444352</ele>
        <time>2024-12-05T16:41:07.099Z</time>
      </trkpt>
      <trkpt lat="43.7548" lon="6.83243">
        <ele>1445.043825</ele>
        <time>2024-12-05T16:41:10.993Z</time>
      </trkpt>
      <trkpt lat="43.75492" lon="6.83245">
        <ele>1445.732566</ele>
        <time>2024-12-05T16:41:15.921Z</time>
      </trkpt>
      <trkpt lat="43.75501" lon="6.83243">
        <ele>1446.286555</ele>
        <time>2024-12-05T16:41:19.885Z</time>
      </trkpt>
      <trkpt lat="43.75507" lon="6.83233">
        <ele>1446.835107</ele>
        <time>2024-12-05T16:41:23.810Z</time>
      </trkpt>
      <trkpt lat="43.75507" lon="6.83221">
        <ele>1447.376122</ele>
        <time>2024-12-05T16:41:27.680Z</time>
      </trkpt>
      <trkpt lat="43.75498" lon="6.83216">
        <ele>1447.928262</ele>
        <time>2024-12-05T16:41:31.630Z</time>
      </trkpt>
      <trkpt lat="43.75493" lon="6.8319">
        <ele>1449.095273</ele>
        <time>2024-12-05T16:41:39.978Z</time>
      </trkpt>
      <trkpt lat="43.75487" lon="6.83179">
        <ele>1449.684399</ele>
        <time>2024-12-05T16:41:44.191Z</time>
      </trkpt>
      <trkpt lat="43.75483" lon="6.83167">
        <ele>1450.284687</ele>
        <time>2024-12-05T16:41:48.485Z</time>
      </trkpt>
      <trkpt lat="43.75474" lon="6.8316">
        <ele>1450.875671</ele>
        <time>2024-12-05T16:41:52.711Z</time>
      </trkpt>
      <trkpt lat="43.75469" lon="6.83149">
        <ele>1451.462127</ele>
        <time>2024-12-05T16:41:56.905Z</time>
      </trkpt>
      <trkpt lat="43.75465" lon="6.83136">
        <ele>1452.046489</ele>
        <time>2024-12-05T16:42:01.083Z</time>
      </trkpt>
      <trkpt lat="43.7546" lon="6.83125">
        <ele>1452.621036</ele>
        <time>2024-12-05T16:42:05.191Z</time>
      </trkpt>
      <trkpt lat="43.75456" lon="6.83112">
        <ele>1453.239481</ele>
        <time>2024-12-05T16:42:09.613Z</time>
      </trkpt>
      <trkpt lat="43.7545" lon="6.83085">
        <ele>1454.480435</ele>
        <time>2024-12-05T16:42:18.484Z</time>
      </trkpt>
      <trkpt lat="43.75448" lon="6.8307">
        <ele>1455.118395</ele>
        <time>2024-12-05T16:42:23.044Z</time>
      </trkpt>
      <trkpt lat="43.7544" lon="6.83044">
        <ele>1455.955738</ele>
        <time>2024-12-05T16:42:31.656Z</time>
      </trkpt>
      <trkpt lat="43.75435" lon="6.83031">
        <ele>1456.327332</ele>
        <time>2024-12-05T16:42:36.284Z</time>
      </trkpt>
      <trkpt lat="43.75432" lon="6.83005">
        <ele>1456.987232</ele>
        <time>2024-12-05T16:42:44.502Z</time>
      </trkpt>
      <trkpt lat="43.75428" lon="6.82993">
        <ele>1457.31451</ele>
        <time>2024-12-05T16:42:48.577Z</time>
      </trkpt>
      <trkpt lat="43.75423" lon="6.82981">
        <ele>1457.66103</ele>
        <time>2024-12-05T16:42:52.892Z</time>
      </trkpt>
      <trkpt lat="43.75417" lon="6.82972">
        <ele>1457.97242</ele>
        <time>2024-12-05T16:42:56.769Z</time>
      </trkpt>
      <trkpt lat="43.75409" lon="6.82963">
        <ele>1458.316262</ele>
        <time>2024-12-05T16:43:01.050Z</time>
      </trkpt>
      <trkpt lat="43.75401" lon="6.82957">
        <ele>1458.633358</ele>
        <time>2024-12-05T16:43:04.998Z</time>
      </trkpt>
      <trkpt lat="43.75395" lon="6.82946">
        <ele>1458.9665</ele>
        <time>2024-12-05T16:43:09.146Z</time>
      </trkpt>
      <trkpt lat="43.75386" lon="6.82937">
        <ele>1459.338185</ele>
        <time>2024-12-05T16:43:13.773Z</time>
      </trkpt>
      <trkpt lat="43.75379" lon="6.82929">
        <ele>1459.653358</ele>
        <time>2024-12-05T16:43:17.697Z</time>
      </trkpt>
      <trkpt lat="43.75369" lon="6.82922">
        <ele>1460.025085</ele>
        <time>2024-12-05T16:43:22.325Z</time>
      </trkpt>
      <trkpt lat="43.75362" lon="6.82915">
        <ele>1460.348737</ele>
        <time>2024-12-05T16:43:26.354Z</time>
      </trkpt>
      <trkpt lat="43.75353" lon="6.82909">
        <ele>1460.685739</ele>
        <time>2024-12-05T16:43:30.550Z</time>
      </trkpt>
      <trkpt lat="43.75345" lon="6.82901">
        <ele>1461.029302</ele>
        <time>2024-12-05T16:43:34.826Z</time>
      </trkpt>
      <trkpt lat="43.75336" lon="6.82893">
        <ele>1461.399759</ele>
        <time>2024-12-05T16:43:39.438Z</time>
      </trkpt>
      <trkpt lat="43.7532" lon="6.82899">
        <ele>1461.630995</ele>
        <time>2024-12-05T16:43:46.341Z</time>
      </trkpt>
      <trkpt lat="43.75302" lon="6.82816">
        <ele>1461.553796</ele>
        <time>2024-12-05T16:44:05.746Z</time>
      </trkpt>
      <trkpt lat="43.75271" lon="6.82658">
        <ele>1461.137111</ele>
        <time>2024-12-05T16:44:40.079Z</time>
      </trkpt>
      <trkpt lat="43.75223" lon="6.82398">
        <ele>1457.05921</ele>
        <time>2024-12-05T16:45:29.745Z</time>
      </trkpt>
      <trkpt lat="43.75211" lon="6.8237">
        <ele>1457.476722</ele>
        <time>2024-12-05T16:45:36.986Z</time>
      </trkpt>
      <trkpt lat="43.75204" lon="6.82325">
        <ele>1458.060694</ele>
        <time>2024-12-05T16:45:47.424Z</time>
      </trkpt>
      <trkpt lat="43.75214" lon="6.82195">
        <ele>1459.737073</ele>
        <time>2024-12-05T16:46:19.167Z</time>
      </trkpt>
      <trkpt lat="43.75194" lon="6.8215">
        <ele>1460.266414</ele>
        <time>2024-12-05T16:46:31.423Z</time>
      </trkpt>
      <trkpt lat="43.75184" lon="6.81998">
        <ele>1461.737218</ele>
        <time>2024-12-05T16:47:05.112Z</time>
      </trkpt>
      <trkpt lat="43.75163" lon="6.81854">
        <ele>1463.211496</ele>
        <time>2024-12-05T16:47:37.159Z</time>
      </trkpt>
      <trkpt lat="43.75146" lon="6.81705">
        <ele>1464.767944</ele>
        <time>2024-12-05T16:48:11.305Z</time>
      </trkpt>
      <trkpt lat="43.75136" lon="6.81558">
        <ele>1468.303223</ele>
        <time>2024-12-05T16:48:45.575Z</time>
      </trkpt>
      <trkpt lat="43.75127" lon="6.81522">
        <ele>1469.195413</ele>
        <time>2024-12-05T16:48:54.550Z</time>
      </trkpt>
      <trkpt lat="43.75118" lon="6.81474">
        <ele>1470.401579</ele>
        <time>2024-12-05T16:49:06.808Z</time>
      </trkpt>
      <trkpt lat="43.75109" lon="6.81337">
        <ele>1474.962627</ele>
        <time>2024-12-05T16:49:40.531Z</time>
      </trkpt>
      <trkpt lat="43.75104" lon="6.8129">
        <ele>1476.604717</ele>
        <time>2024-12-05T16:49:52.525Z</time>
      </trkpt>
      <trkpt lat="43.7509" lon="6.81251">
        <ele>1478.115209</ele>
        <time>2024-12-05T16:50:03.598Z</time>
      </trkpt>
      <trkpt lat="43.75083" lon="6.81201">
        <ele>1480.066376</ele>
        <time>2024-12-05T16:50:16.393Z</time>
      </trkpt>
      <trkpt lat="43.75069" lon="6.81052">
        <ele>1487.285504</ele>
        <time>2024-12-05T16:50:57.720Z</time>
      </trkpt>
      <trkpt lat="43.7507" lon="6.81032">
        <ele>1488.252965</ele>
        <time>2024-12-05T16:51:03.661Z</time>
      </trkpt>
      <trkpt lat="43.75072" lon="6.81021">
        <ele>1488.753039</ele>
        <time>2024-12-05T16:51:06.791Z</time>
      </trkpt>
      <trkpt lat="43.7507" lon="6.81002">
        <ele>1489.7008</ele>
        <time>2024-12-05T16:51:12.655Z</time>
      </trkpt>
      <trkpt lat="43.75064" lon="6.80967">
        <ele>1491.368578</ele>
        <time>2024-12-05T16:51:23.529Z</time>
      </trkpt>
      <trkpt lat="43.7506" lon="6.8092">
        <ele>1492.818001</ele>
        <time>2024-12-05T16:51:37.775Z</time>
      </trkpt>
      <trkpt lat="43.75062" lon="6.80891">
        <ele>1493.721301</ele>
        <time>2024-12-05T16:51:46.703Z</time>
      </trkpt>
      <trkpt lat="43.75053" lon="6.80821">
        <ele>1495.899032</ele>
        <time>2024-12-05T16:52:05.158Z</time>
      </trkpt>
      <trkpt lat="43.75038" lon="6.80785">
        <ele>1497.182718</ele>
        <time>2024-12-05T16:52:14.753Z</time>
      </trkpt>
      <trkpt lat="43.75029" lon="6.80755">
        <ele>1498.169361</ele>
        <time>2024-12-05T16:52:21.784Z</time>
      </trkpt>
      <trkpt lat="43.75028" lon="6.8073">
        <ele>1498.892324</ele>
        <time>2024-12-05T16:52:27.449Z</time>
      </trkpt>
      <trkpt lat="43.75028" lon="6.80721">
        <ele>1498.670963</ele>
        <time>2024-12-05T16:52:29.412Z</time>
      </trkpt>
      <trkpt lat="43.75028" lon="6.80721">
        <ele>1498.670963</ele>
        <time>2024-12-05T16:52:29.543Z</time>
      </trkpt>
      <trkpt lat="43.75028" lon="6.80721">
        <ele>1498.670963</ele>
        <time>2024-12-05T16:52:29.543Z</time>
      </trkpt>
      <trkpt lat="43.75007" lon="6.80718">
        <ele>1497.941689</ele>
        <time>2024-12-05T16:52:38.438Z</time>
      </trkpt>
      <trkpt lat="43.7501" lon="6.80702">
        <ele>1497.519196</ele>
        <time>2024-12-05T16:52:43.593Z</time>
      </trkpt>
      <trkpt lat="43.75011" lon="6.80689">
        <ele>1497.189758</ele>
        <time>2024-12-05T16:52:47.611Z</time>
      </trkpt>
      <trkpt lat="43.75011" lon="6.80674">
        <ele>1496.824603</ele>
        <time>2024-12-05T16:52:52.069Z</time>
      </trkpt>
      <trkpt lat="43.75011" lon="6.80655">
        <ele>1496.325628</ele>
        <time>2024-12-05T16:52:58.159Z</time>
      </trkpt>
      <trkpt lat="43.7501" lon="6.80642">
        <ele>1496.001213</ele>
        <time>2024-12-05T16:53:02.117Z</time>
      </trkpt>
      <trkpt lat="43.75008" lon="6.8063">
        <ele>1495.673612</ele>
        <time>2024-12-05T16:53:06.120Z</time>
      </trkpt>
      <trkpt lat="43.75004" lon="6.80612">
        <ele>1495.202031</ele>
        <time>2024-12-05T16:53:11.880Z</time>
      </trkpt>
      <trkpt lat="43.75" lon="6.806">
        <ele>1494.874042</ele>
        <time>2024-12-05T16:53:15.890Z</time>
      </trkpt>
      <trkpt lat="43.74993" lon="6.8059">
        <ele>1494.518739</ele>
        <time>2024-12-05T16:53:20.226Z</time>
      </trkpt>
      <trkpt lat="43.74986" lon="6.8058">
        <ele>1494.157516</ele>
        <time>2024-12-05T16:53:24.635Z</time>
      </trkpt>
      <trkpt lat="43.74971" lon="6.80557">
        <ele>1493.378764</ele>
        <time>2024-12-05T16:53:34.144Z</time>
      </trkpt>
      <trkpt lat="43.74955" lon="6.80535">
        <ele>1492.619711</ele>
        <time>2024-12-05T16:53:43.499Z</time>
      </trkpt>
      <trkpt lat="43.74948" lon="6.80524">
        <ele>1492.647899</ele>
        <time>2024-12-05T16:53:48.058Z</time>
      </trkpt>
      <trkpt lat="43.7494" lon="6.80514">
        <ele>1492.676807</ele>
        <time>2024-12-05T16:53:52.737Z</time>
      </trkpt>
      <trkpt lat="43.74932" lon="6.80504">
        <ele>1492.705901</ele>
        <time>2024-12-05T16:53:57.445Z</time>
      </trkpt>
      <trkpt lat="43.74925" lon="6.80493">
        <ele>1492.735154</ele>
        <time>2024-12-05T16:54:02.175Z</time>
      </trkpt>
      <trkpt lat="43.74913" lon="6.80469">
        <ele>1492.789525</ele>
        <time>2024-12-05T16:54:10.968Z</time>
      </trkpt>
      <trkpt lat="43.74909" lon="6.80458">
        <ele>1492.814546</ele>
        <time>2024-12-05T16:54:15.014Z</time>
      </trkpt>
      <trkpt lat="43.74906" lon="6.80459">
        <ele>1492.820983</ele>
        <time>2024-12-05T16:54:16.055Z</time>
      </trkpt>
      <trkpt lat="43.74901" lon="6.80437">
        <ele>1492.865824</ele>
        <time>2024-12-05T16:54:21.136Z</time>
      </trkpt>
      <trkpt lat="43.74882" lon="6.80346">
        <ele>1493.04654</ele>
        <time>2024-12-05T16:54:43.191Z</time>
      </trkpt>
      <trkpt lat="43.7489" lon="6.80316">
        <ele>1493.26426</ele>
        <time>2024-12-05T16:54:50.874Z</time>
      </trkpt>
      <trkpt lat="43.74899" lon="6.80263">
        <ele>1494.717179</ele>
        <time>2024-12-05T16:55:05.680Z</time>
      </trkpt>
      <trkpt lat="43.74888" lon="6.80208">
        <ele>1496.235899</ele>
        <time>2024-12-05T16:55:20.266Z</time>
      </trkpt>
      <trkpt lat="43.74873" lon="6.80168">
        <ele>1497.445912</ele>
        <time>2024-12-05T16:55:31.074Z</time>
      </trkpt>
      <trkpt lat="43.74814" lon="6.8005">
        <ele>1500.86448</ele>
        <time>2024-12-05T16:56:03.370Z</time>
      </trkpt>
      <trkpt lat="43.74787" lon="6.79935">
        <ele>1503.209688</ele>
        <time>2024-12-05T16:56:31.160Z</time>
      </trkpt>
      <trkpt lat="43.74771" lon="6.79889">
        <ele>1504.196456</ele>
        <time>2024-12-05T16:56:43.303Z</time>
      </trkpt>
      <trkpt lat="43.74763" lon="6.7986">
        <ele>1504.790889</ele>
        <time>2024-12-05T16:56:50.811Z</time>
      </trkpt>
      <trkpt lat="43.74759" lon="6.79814">
        <ele>1505.617129</ele>
        <time>2024-12-05T16:57:01.631Z</time>
      </trkpt>
      <trkpt lat="43.74752" lon="6.79789">
        <ele>1506.089301</ele>
        <time>2024-12-05T16:57:07.881Z</time>
      </trkpt>
      <trkpt lat="43.74733" lon="6.79744">
        <ele>1507.011191</ele>
        <time>2024-12-05T16:57:19.517Z</time>
      </trkpt>
      <trkpt lat="43.7472" lon="6.79698">
        <ele>1507.877349</ele>
        <time>2024-12-05T16:57:30.356Z</time>
      </trkpt>
      <trkpt lat="43.74712" lon="6.79653">
        <ele>1508.710624</ele>
        <time>2024-12-05T16:57:40.813Z</time>
      </trkpt>
      <trkpt lat="43.74694" lon="6.79637">
        <ele>1509.704552</ele>
        <time>2024-12-05T16:57:47.694Z</time>
      </trkpt>
      <trkpt lat="43.74671" lon="6.79567">
        <ele>1513.748559</ele>
        <time>2024-12-05T16:58:07.144Z</time>
      </trkpt>
      <trkpt lat="43.74678" lon="6.79541">
        <ele>1515.169836</ele>
        <time>2024-12-05T16:58:14.514Z</time>
      </trkpt>
      <trkpt lat="43.7468" lon="6.79515">
        <ele>1516.528109</ele>
        <time>2024-12-05T16:58:21.643Z</time>
      </trkpt>
      <trkpt lat="43.74678" lon="6.79489">
        <ele>1517.88119</ele>
        <time>2024-12-05T16:58:29.324Z</time>
      </trkpt>
      <trkpt lat="43.74671" lon="6.79464">
        <ele>1519.307411</ele>
        <time>2024-12-05T16:58:38.160Z</time>
      </trkpt>
      <trkpt lat="43.74669" lon="6.79438">
        <ele>1520.659662</ele>
        <time>2024-12-05T16:58:47.442Z</time>
      </trkpt>
      <trkpt lat="43.74677" lon="6.79335">
        <ele>1529.905952</ele>
        <time>2024-12-05T16:59:29.135Z</time>
      </trkpt>
      <trkpt lat="43.74677" lon="6.79311">
        <ele>1532.351659</ele>
        <time>2024-12-05T16:59:39.108Z</time>
      </trkpt>
      <trkpt lat="43.74677" lon="6.79311">
        <ele>1532.351659</ele>
        <time>2024-12-05T16:59:39.176Z</time>
      </trkpt>
      <trkpt lat="43.74677" lon="6.79311">
        <ele>1532.351659</ele>
        <time>2024-12-05T16:59:39.176Z</time>
      </trkpt>
      <trkpt lat="43.74681" lon="6.79311">
        <ele>1532.929954</ele>
        <time>2024-12-05T16:59:40.942Z</time>
      </trkpt>
      <trkpt lat="43.74684" lon="6.79296">
        <ele>1534.461889</ele>
        <time>2024-12-05T16:59:45.619Z</time>
      </trkpt>
      <trkpt lat="43.74687" lon="6.79284">
        <ele>1535.841719</ele>
        <time>2024-12-05T16:59:49.840Z</time>
      </trkpt>
      <trkpt lat="43.74696" lon="6.79255">
        <ele>1539.008689</ele>
        <time>2024-12-05T16:59:59.532Z</time>
      </trkpt>
      <trkpt lat="43.74699" lon="6.7924">
        <ele>1540.589996</ele>
        <time>2024-12-05T17:00:04.364Z</time>
      </trkpt>
      <trkpt lat="43.74708" lon="6.79211">
        <ele>1543.772171</ele>
        <time>2024-12-05T17:00:14.111Z</time>
      </trkpt>
      <trkpt lat="43.74711" lon="6.79197">
        <ele>1545.343831</ele>
        <time>2024-12-05T17:00:18.928Z</time>
      </trkpt>
      <trkpt lat="43.74716" lon="6.79183">
        <ele>1546.917943</ele>
        <time>2024-12-05T17:00:23.744Z</time>
      </trkpt>
      <trkpt lat="43.74721" lon="6.7917">
        <ele>1548.554069</ele>
        <time>2024-12-05T17:00:28.495Z</time>
      </trkpt>
      <trkpt lat="43.74726" lon="6.79156">
        <ele>1550.194673</ele>
        <time>2024-12-05T17:00:33.140Z</time>
      </trkpt>
      <trkpt lat="43.74732" lon="6.79144">
        <ele>1551.821661</ele>
        <time>2024-12-05T17:00:37.747Z</time>
      </trkpt>
      <trkpt lat="43.74739" lon="6.79132">
        <ele>1553.509651</ele>
        <time>2024-12-05T17:00:42.527Z</time>
      </trkpt>
      <trkpt lat="43.74745" lon="6.79119">
        <ele>1555.197506</ele>
        <time>2024-12-05T17:00:47.307Z</time>
      </trkpt>
      <trkpt lat="43.74751" lon="6.79107">
        <ele>1556.858612</ele>
        <time>2024-12-05T17:00:52.011Z</time>
      </trkpt>
      <trkpt lat="43.74757" lon="6.79093">
        <ele>1558.582717</ele>
        <time>2024-12-05T17:00:56.893Z</time>
      </trkpt>
      <trkpt lat="43.74763" lon="6.79081">
        <ele>1560.27901</ele>
        <time>2024-12-05T17:01:01.696Z</time>
      </trkpt>
      <trkpt lat="43.7477" lon="6.79069">
        <ele>1561.95812</ele>
        <time>2024-12-05T17:01:06.451Z</time>
      </trkpt>
      <trkpt lat="43.74778" lon="6.79058">
        <ele>1563.618677</ele>
        <time>2024-12-05T17:01:11.153Z</time>
      </trkpt>
      <trkpt lat="43.74785" lon="6.79046">
        <ele>1565.354953</ele>
        <time>2024-12-05T17:01:16.068Z</time>
      </trkpt>
      <trkpt lat="43.74791" lon="6.79033">
        <ele>1567.061433</ele>
        <time>2024-12-05T17:01:20.899Z</time>
      </trkpt>
      <trkpt lat="43.74798" lon="6.79021">
        <ele>1568.706739</ele>
        <time>2024-12-05T17:01:25.557Z</time>
      </trkpt>
      <trkpt lat="43.74804" lon="6.79009">
        <ele>1570.358404</ele>
        <time>2024-12-05T17:01:30.232Z</time>
      </trkpt>
      <trkpt lat="43.74816" lon="6.78987">
        <ele>1573.45658</ele>
        <time>2024-12-05T17:01:39.002Z</time>
      </trkpt>
      <trkpt lat="43.74822" lon="6.78975">
        <ele>1574.996947</ele>
        <time>2024-12-05T17:01:43.399Z</time>
      </trkpt>
      <trkpt lat="43.74827" lon="6.78962">
        <ele>1576.510561</ele>
        <time>2024-12-05T17:01:47.997Z</time>
      </trkpt>
      <trkpt lat="43.74831" lon="6.78949">
        <ele>1577.983341</ele>
        <time>2024-12-05T17:01:52.472Z</time>
      </trkpt>
      <trkpt lat="43.74837" lon="6.78922">
        <ele>1580.855716</ele>
        <time>2024-12-05T17:02:01.198Z</time>
      </trkpt>
      <trkpt lat="43.7484" lon="6.7891">
        <ele>1582.163772</ele>
        <time>2024-12-05T17:02:05.171Z</time>
      </trkpt>
      <trkpt lat="43.74843" lon="6.78897">
        <ele>1583.539296</ele>
        <time>2024-12-05T17:02:09.348Z</time>
      </trkpt>
      <trkpt lat="43.74847" lon="6.78885">
        <ele>1584.910598</ele>
        <time>2024-12-05T17:02:13.514Z</time>
      </trkpt>
      <trkpt lat="43.74848" lon="6.78872">
        <ele>1586.230135</ele>
        <time>2024-12-05T17:02:17.521Z</time>
      </trkpt>
      <trkpt lat="43.74839" lon="6.78865">
        <ele>1587.75108</ele>
        <time>2024-12-05T17:02:22.141Z</time>
      </trkpt>
      <trkpt lat="43.74829" lon="6.78861">
        <ele>1589.243193</ele>
        <time>2024-12-05T17:02:26.673Z</time>
      </trkpt>
      <trkpt lat="43.74819" lon="6.78856">
        <ele>1590.706318</ele>
        <time>2024-12-05T17:02:31.117Z</time>
      </trkpt>
      <trkpt lat="43.7481" lon="6.7885">
        <ele>1592.11816</ele>
        <time>2024-12-05T17:02:35.406Z</time>
      </trkpt>
      <trkpt lat="43.74802" lon="6.78841">
        <ele>1593.532028</ele>
        <time>2024-12-05T17:02:39.702Z</time>
      </trkpt>
      <trkpt lat="43.74796" lon="6.78831">
        <ele>1594.923946</ele>
        <time>2024-12-05T17:02:43.930Z</time>
      </trkpt>
      <trkpt lat="43.74783" lon="6.78809">
        <ele>1597.836891</ele>
        <time>2024-12-05T17:02:52.774Z</time>
      </trkpt>
      <trkpt lat="43.74791" lon="6.7881">
        <ele>1599.008072</ele>
        <time>2024-12-05T17:02:56.316Z</time>
      </trkpt>
      <trkpt lat="43.74793" lon="6.78793">
        <ele>1600.582874</ele>
        <time>2024-12-05T17:03:03.257Z</time>
      </trkpt>
      <trkpt lat="43.74776" lon="6.78697">
        <ele>1605.874823</ele>
        <time>2024-12-05T17:03:38.297Z</time>
      </trkpt>
      <trkpt lat="43.74758" lon="6.78562">
        <ele>1613.229026</ele>
        <time>2024-12-05T17:04:12.768Z</time>
      </trkpt>
      <trkpt lat="43.74736" lon="6.78605">
        <ele>1614.991776</ele>
        <time>2024-12-05T17:04:25.100Z</time>
      </trkpt>
      <trkpt lat="43.74758" lon="6.78562">
        <ele>1616.541991</ele>
        <time>2024-12-05T17:04:37.747Z</time>
      </trkpt>
      <trkpt lat="43.74757" lon="6.78543">
        <ele>1617.072465</ele>
        <time>2024-12-05T17:04:42.097Z</time>
      </trkpt>
      <trkpt lat="43.74767" lon="6.78526">
        <ele>1617.704639</ele>
        <time>2024-12-05T17:04:47.339Z</time>
      </trkpt>
      <trkpt lat="43.7489" lon="6.7834">
        <ele>1622.459511</ele>
        <time>2024-12-05T17:05:50.163Z</time>
      </trkpt>
      <trkpt lat="43.74887" lon="6.78324">
        <ele>1622.653049</ele>
        <time>2024-12-05T17:05:53.892Z</time>
      </trkpt>
      <trkpt lat="43.74906" lon="6.7825">
        <ele>1623.549614</ele>
        <time>2024-12-05T17:06:10.214Z</time>
      </trkpt>
      <trkpt lat="43.74936" lon="6.78162">
        <ele>1619.006677</ele>
        <time>2024-12-05T17:06:26.897Z</time>
      </trkpt>
      <trkpt lat="43.74958" lon="6.78115">
        <ele>1616.003218</ele>
        <time>2024-12-05T17:06:36.004Z</time>
      </trkpt>
      <trkpt lat="43.74991" lon="6.78057">
        <ele>1612.079345</ele>
        <time>2024-12-05T17:06:47.573Z</time>
      </trkpt>
      <trkpt lat="43.7502" lon="6.77989">
        <ele>1606.307896</ele>
        <time>2024-12-05T17:06:59.692Z</time>
      </trkpt>
      <trkpt lat="43.75053" lon="6.7793">
        <ele>1599.898425</ele>
        <time>2024-12-05T17:07:10.874Z</time>
      </trkpt>
      <trkpt lat="43.75153" lon="6.77833">
        <ele>1586.334521</ele>
        <time>2024-12-05T17:07:36.174Z</time>
      </trkpt>
      <trkpt lat="43.75174" lon="6.77791">
        <ele>1583.178069</ele>
        <time>2024-12-05T17:07:43.976Z</time>
      </trkpt>
      <trkpt lat="43.7522" lon="6.77734">
        <ele>1577.881943</ele>
        <time>2024-12-05T17:07:57.589Z</time>
      </trkpt>
      <trkpt lat="43.75264" lon="6.7766">
        <ele>1573.502038</ele>
        <time>2024-12-05T17:08:14.483Z</time>
      </trkpt>
      <trkpt lat="43.7527" lon="6.77596">
        <ele>1573.271326</ele>
        <time>2024-12-05T17:08:28.489Z</time>
      </trkpt>
      <trkpt lat="43.75245" lon="6.77552">
        <ele>1573.07346</ele>
        <time>2024-12-05T17:08:40.908Z</time>
      </trkpt>
      <trkpt lat="43.75236" lon="6.77428">
        <ele>1571.735865</ele>
        <time>2024-12-05T17:09:08.815Z</time>
      </trkpt>
      <trkpt lat="43.75246" lon="6.77347">
        <ele>1567.94054</ele>
        <time>2024-12-05T17:09:23.775Z</time>
      </trkpt>
      <trkpt lat="43.75283" lon="6.77341">
        <ele>1565.569441</ele>
        <time>2024-12-05T17:09:32.419Z</time>
      </trkpt>
      <trkpt lat="43.75283" lon="6.77341">
        <ele>1565.569441</ele>
        <time>2024-12-05T17:09:32.610Z</time>
      </trkpt>
      <trkpt lat="43.75283" lon="6.77341">
        <ele>1565.569441</ele>
        <time>2024-12-05T17:09:32.610Z</time>
      </trkpt>
      <trkpt lat="43.75297" lon="6.77347">
        <ele>1564.654748</ele>
        <time>2024-12-05T17:09:38.744Z</time>
      </trkpt>
      <trkpt lat="43.75306" lon="6.77342">
        <ele>1564.032087</ele>
        <time>2024-12-05T17:09:42.937Z</time>
      </trkpt>
      <trkpt lat="43.75314" lon="6.77331">
        <ele>1563.315433</ele>
        <time>2024-12-05T17:09:47.762Z</time>
      </trkpt>
      <trkpt lat="43.75322" lon="6.77316">
        <ele>1562.474132</ele>
        <time>2024-12-05T17:09:53.427Z</time>
      </trkpt>
      <trkpt lat="43.75328" lon="6.773">
        <ele>1561.629173</ele>
        <time>2024-12-05T17:09:59.120Z</time>
      </trkpt>
      <trkpt lat="43.75332" lon="6.77282">
        <ele>1560.109195</ele>
        <time>2024-12-05T17:10:05.060Z</time>
      </trkpt>
      <trkpt lat="43.75336" lon="6.77265">
        <ele>1558.179478</ele>
        <time>2024-12-05T17:10:10.641Z</time>
      </trkpt>
      <trkpt lat="43.7534" lon="6.77246">
        <ele>1556.081672</ele>
        <time>2024-12-05T17:10:16.714Z</time>
      </trkpt>
      <trkpt lat="43.75355" lon="6.7719">
        <ele>1549.608886</ele>
        <time>2024-12-05T17:10:35.428Z</time>
      </trkpt>
      <trkpt lat="43.75358" lon="6.77177">
        <ele>1548.163981</ele>
        <time>2024-12-05T17:10:39.599Z</time>
      </trkpt>
      <trkpt lat="43.75368" lon="6.7717">
        <ele>1546.447007</ele>
        <time>2024-12-05T17:10:44.559Z</time>
      </trkpt>
      <trkpt lat="43.75377" lon="6.77166">
        <ele>1545.053181</ele>
        <time>2024-12-05T17:10:48.587Z</time>
      </trkpt>
      <trkpt lat="43.75382" lon="6.77139">
        <ele>1542.092343</ele>
        <time>2024-12-05T17:10:57.158Z</time>
      </trkpt>
      <trkpt lat="43.75384" lon="6.77122">
        <ele>1540.232346</ele>
        <time>2024-12-05T17:11:02.547Z</time>
      </trkpt>
      <trkpt lat="43.75378" lon="6.77107">
        <ele>1538.356237</ele>
        <time>2024-12-05T17:11:07.990Z</time>
      </trkpt>
      <trkpt lat="43.75373" lon="6.77094">
        <ele>1536.857629</ele>
        <time>2024-12-05T17:11:12.342Z</time>
      </trkpt>
      <trkpt lat="43.75371" lon="6.77079">
        <ele>1535.157803</ele>
        <time>2024-12-05T17:11:17.283Z</time>
      </trkpt>
      <trkpt lat="43.75361" lon="6.77066">
        <ele>1532.581601</ele>
        <time>2024-12-05T17:11:23.027Z</time>
      </trkpt>
      <trkpt lat="43.75366" lon="6.77059">
        <ele>1531.028637</ele>
        <time>2024-12-05T17:11:24.387Z</time>
      </trkpt>
      <trkpt lat="43.75398" lon="6.76972">
        <ele>1515.375479</ele>
        <time>2024-12-05T17:11:38.096Z</time>
      </trkpt>
      <trkpt lat="43.75403" lon="6.76952">
        <ele>1511.955598</ele>
        <time>2024-12-05T17:11:41.066Z</time>
      </trkpt>
      <trkpt lat="43.75407" lon="6.76911">
        <ele>1505.284011</ele>
        <time>2024-12-05T17:11:46.894Z</time>
      </trkpt>
      <trkpt lat="43.75406" lon="6.7686">
        <ele>1497.123253</ele>
        <time>2024-12-05T17:11:54.014Z</time>
      </trkpt>
      <trkpt lat="43.754" lon="6.76804">
        <ele>1487.10215</ele>
        <time>2024-12-05T17:12:01.961Z</time>
      </trkpt>
      <trkpt lat="43.75395" lon="6.7678">
        <ele>1482.446665</ele>
        <time>2024-12-05T17:12:05.527Z</time>
      </trkpt>
      <trkpt lat="43.75371" lon="6.76726">
        <ele>1470.82101</ele>
        <time>2024-12-05T17:12:14.421Z</time>
      </trkpt>
      <trkpt lat="43.75377" lon="6.76715">
        <ele>1468.258572</ele>
        <time>2024-12-05T17:12:19.250Z</time>
      </trkpt>
      <trkpt lat="43.75377" lon="6.76706">
        <ele>1466.546783</ele>
        <time>2024-12-05T17:12:22.472Z</time>
      </trkpt>
      <trkpt lat="43.75373" lon="6.76668">
        <ele>1459.464493</ele>
        <time>2024-12-05T17:12:35.856Z</time>
      </trkpt>
      <trkpt lat="43.75382" lon="6.76652">
        <ele>1455.737541</ele>
        <time>2024-12-05T17:12:42.869Z</time>
      </trkpt>
      <trkpt lat="43.75382" lon="6.76648">
        <ele>1455.039568</ele>
        <time>2024-12-05T17:12:44.210Z</time>
      </trkpt>
      <trkpt lat="43.75379" lon="6.76629">
        <ele>1451.27907</ele>
        <time>2024-12-05T17:12:51.273Z</time>
      </trkpt>
      <trkpt lat="43.75378" lon="6.76626">
        <ele>1450.777166</ele>
        <time>2024-12-05T17:12:52.226Z</time>
      </trkpt>
      <trkpt lat="43.75372" lon="6.76611">
        <ele>1447.87885</ele>
        <time>2024-12-05T17:12:57.961Z</time>
      </trkpt>
      <trkpt lat="43.75376" lon="6.76604">
        <ele>1446.537114</ele>
        <time>2024-12-05T17:13:00.906Z</time>
      </trkpt>
      <trkpt lat="43.7538" lon="6.76603">
        <ele>1445.637472</ele>
        <time>2024-12-05T17:13:02.899Z</time>
      </trkpt>
      <trkpt lat="43.75381" lon="6.76595">
        <ele>1444.399631</ele>
        <time>2024-12-05T17:13:05.647Z</time>
      </trkpt>
      <trkpt lat="43.75373" lon="6.76583">
        <ele>1441.890556</ele>
        <time>2024-12-05T17:13:11.197Z</time>
      </trkpt>
      <trkpt lat="43.75386" lon="6.76582">
        <ele>1439.056933</ele>
        <time>2024-12-05T17:13:17.469Z</time>
      </trkpt>
      <trkpt lat="43.75408" lon="6.7659">
        <ele>1434.166398</ele>
        <time>2024-12-05T17:13:28.243Z</time>
      </trkpt>
      <trkpt lat="43.75406" lon="6.76577">
        <ele>1432.111758</ele>
        <time>2024-12-05T17:13:32.814Z</time>
      </trkpt>
      <trkpt lat="43.75505" lon="6.7662">
        <ele>1409.650342</ele>
        <time>2024-12-05T17:13:53.172Z</time>
      </trkpt>
      <trkpt lat="43.75527" lon="6.7663">
        <ele>1405.109276</ele>
        <time>2024-12-05T17:13:57.749Z</time>
      </trkpt>
      <trkpt lat="43.75529" lon="6.76609">
        <ele>1402.194602</ele>
        <time>2024-12-05T17:14:05.030Z</time>
      </trkpt>
      <trkpt lat="43.75524" lon="6.76577">
        <ele>1397.572874</ele>
        <time>2024-12-05T17:14:16.544Z</time>
      </trkpt>
      <trkpt lat="43.75522" lon="6.76554">
        <ele>1394.261029</ele>
        <time>2024-12-05T17:14:24.758Z</time>
      </trkpt>
      <trkpt lat="43.75537" lon="6.76565">
        <ele>1391.016974</ele>
        <time>2024-12-05T17:14:32.805Z</time>
      </trkpt>
      <trkpt lat="43.75538" lon="6.76539">
        <ele>1387.384077</ele>
        <time>2024-12-05T17:14:41.768Z</time>
      </trkpt>
      <trkpt lat="43.75555" lon="6.76546">
        <ele>1384.052291</ele>
        <time>2024-12-05T17:14:50.001Z</time>
      </trkpt>
      <trkpt lat="43.75551" lon="6.76506">
        <ele>1378.447908</ele>
        <time>2024-12-05T17:15:04.041Z</time>
      </trkpt>
      <trkpt lat="43.7555" lon="6.76501">
        <ele>1377.654043</ele>
        <time>2024-12-05T17:15:06.049Z</time>
      </trkpt>
      <trkpt lat="43.75573" lon="6.76515">
        <ele>1373.660496</ele>
        <time>2024-12-05T17:15:18.584Z</time>
      </trkpt>
      <trkpt lat="43.75598" lon="6.76497">
        <ele>1370.557713</ele>
        <time>2024-12-05T17:15:32.381Z</time>
      </trkpt>
      <trkpt lat="43.75609" lon="6.76487">
        <ele>1368.986592</ele>
        <time>2024-12-05T17:15:39.465Z</time>
      </trkpt>
      <trkpt lat="43.75614" lon="6.76477">
        <ele>1367.997635</ele>
        <time>2024-12-05T17:15:43.932Z</time>
      </trkpt>
      <trkpt lat="43.75612" lon="6.76454">
        <ele>1366.125516</ele>
        <time>2024-12-05T17:15:52.419Z</time>
      </trkpt>
      <trkpt lat="43.75566" lon="6.76365">
        <ele>1357.127013</ele>
        <time>2024-12-05T17:16:35.304Z</time>
      </trkpt>
      <trkpt lat="43.75564" lon="6.76347">
        <ele>1355.655308</ele>
        <time>2024-12-05T17:16:38.258Z</time>
      </trkpt>
      <trkpt lat="43.75553" lon="6.76318">
        <ele>1354.17281</ele>
        <time>2024-12-05T17:16:44.093Z</time>
      </trkpt>
      <trkpt lat="43.75565" lon="6.7629">
        <ele>1353.479618</ele>
        <time>2024-12-05T17:16:49.880Z</time>
      </trkpt>
      <trkpt lat="43.75565" lon="6.7629">
        <ele>1353.479618</ele>
        <time>2024-12-05T17:16:49.960Z</time>
      </trkpt>
      <trkpt lat="43.75565" lon="6.7629">
        <ele>1353.479618</ele>
        <time>2024-12-05T17:16:49.960Z</time>
      </trkpt>
      <trkpt lat="43.75567" lon="6.763">
        <ele>1353.264882</ele>
        <time>2024-12-05T17:16:53.067Z</time>
      </trkpt>
      <trkpt lat="43.75559" lon="6.76265">
        <ele>1352.484324</ele>
        <time>2024-12-05T17:17:04.356Z</time>
      </trkpt>
      <trkpt lat="43.75554" lon="6.76249">
        <ele>1352.095336</ele>
        <time>2024-12-05T17:17:09.981Z</time>
      </trkpt>
      <trkpt lat="43.75548" lon="6.76238">
        <ele>1351.814739</ele>
        <time>2024-12-05T17:17:14.041Z</time>
      </trkpt>
      <trkpt lat="43.75536" lon="6.76213">
        <ele>1351.172873</ele>
        <time>2024-12-05T17:17:23.321Z</time>
      </trkpt>
      <trkpt lat="43.75531" lon="6.76199">
        <ele>1350.830941</ele>
        <time>2024-12-05T17:17:28.266Z</time>
      </trkpt>
      <trkpt lat="43.75527" lon="6.76183">
        <ele>1350.485252</ele>
        <time>2024-12-05T17:17:33.264Z</time>
      </trkpt>
      <trkpt lat="43.75527" lon="6.76167">
        <ele>1350.130462</ele>
        <time>2024-12-05T17:17:38.394Z</time>
      </trkpt>
      <trkpt lat="43.75527" lon="6.76183">
        <ele>1349.792551</ele>
        <time>2024-12-05T17:17:43.280Z</time>
      </trkpt>
      <trkpt lat="43.7553" lon="6.76209">
        <ele>1349.226103</ele>
        <time>2024-12-05T17:17:51.496Z</time>
      </trkpt>
      <trkpt lat="43.75531" lon="6.76224">
        <ele>1348.91923</ele>
        <time>2024-12-05T17:17:56.112Z</time>
      </trkpt>
      <trkpt lat="43.75534" lon="6.76236">
        <ele>1348.655505</ele>
        <time>2024-12-05T17:18:00.079Z</time>
      </trkpt>
      <trkpt lat="43.7554" lon="6.76251">
        <ele>1348.295271</ele>
        <time>2024-12-05T17:18:05.497Z</time>
      </trkpt>
      <trkpt lat="43.75544" lon="6.76267">
        <ele>1347.956243</ele>
        <time>2024-12-05T17:18:10.597Z</time>
      </trkpt>
      <trkpt lat="43.75547" lon="6.76282">
        <ele>1347.627117</ele>
        <time>2024-12-05T17:18:15.547Z</time>
      </trkpt>
      <trkpt lat="43.75537" lon="6.76284">
        <ele>1347.333197</ele>
        <time>2024-12-05T17:18:19.968Z</time>
      </trkpt>
      <trkpt lat="43.75528" lon="6.76279">
        <ele>1347.057736</ele>
        <time>2024-12-05T17:18:24.112Z</time>
      </trkpt>
      <trkpt lat="43.75502" lon="6.76273">
        <ele>1346.325278</ele>
        <time>2024-12-05T17:18:35.129Z</time>
      </trkpt>
      <trkpt lat="43.75494" lon="6.76271">
        <ele>1346.099711</ele>
        <time>2024-12-05T17:18:38.515Z</time>
      </trkpt>
      <trkpt lat="43.75477" lon="6.76266">
        <ele>1345.600273</ele>
        <time>2024-12-05T17:18:43.116Z</time>
      </trkpt>
      <trkpt lat="43.75422" lon="6.7624">
        <ele>1343.631461</ele>
        <time>2024-12-05T17:18:57.412Z</time>
      </trkpt>
      <trkpt lat="43.75408" lon="6.76233">
        <ele>1342.706212</ele>
        <time>2024-12-05T17:19:00.710Z</time>
      </trkpt>
      <trkpt lat="43.75401" lon="6.76192">
        <ele>1340.717775</ele>
        <time>2024-12-05T17:19:07.633Z</time>
      </trkpt>
      <trkpt lat="43.75408" lon="6.76166">
        <ele>1339.417755</ele>
        <time>2024-12-05T17:19:12.063Z</time>
      </trkpt>
      <trkpt lat="43.7541" lon="6.76137">
        <ele>1338.024973</ele>
        <time>2024-12-05T17:19:16.819Z</time>
      </trkpt>
      <trkpt lat="43.75407" lon="6.76105">
        <ele>1336.480958</ele>
        <time>2024-12-05T17:19:22.089Z</time>
      </trkpt>
      <trkpt lat="43.75365" lon="6.76068">
        <ele>1333.193799</ele>
        <time>2024-12-05T17:19:33.386Z</time>
      </trkpt>
      <trkpt lat="43.75356" lon="6.76038">
        <ele>1331.613258</ele>
        <time>2024-12-05T17:19:38.783Z</time>
      </trkpt>
      <trkpt lat="43.75331" lon="6.76001">
        <ele>1328.967742</ele>
        <time>2024-12-05T17:19:47.724Z</time>
      </trkpt>
      <trkpt lat="43.75306" lon="6.75977">
        <ele>1326.79097</ele>
        <time>2024-12-05T17:19:55.226Z</time>
      </trkpt>
      <trkpt lat="43.75265" lon="6.7589">
        <ele>1321.348692</ele>
        <time>2024-12-05T17:20:12.723Z</time>
      </trkpt>
      <trkpt lat="43.75245" lon="6.75843">
        <ele>1317.375986</ele>
        <time>2024-12-05T17:20:21.022Z</time>
      </trkpt>
      <trkpt lat="43.75227" lon="6.7576">
        <ele>1306.699945</ele>
        <time>2024-12-05T17:20:33.706Z</time>
      </trkpt>
      <trkpt lat="43.75202" lon="6.75698">
        <ele>1297.913046</ele>
        <time>2024-12-05T17:20:43.821Z</time>
      </trkpt>
      <trkpt lat="43.7519" lon="6.75656">
        <ele>1292.354546</ele>
        <time>2024-12-05T17:20:50.160Z</time>
      </trkpt>
      <trkpt lat="43.75179" lon="6.75634">
        <ele>1288.98711</ele>
        <time>2024-12-05T17:20:53.997Z</time>
      </trkpt>
      <trkpt lat="43.75106" lon="6.75514">
        <ele>1264.632116</ele>
        <time>2024-12-05T17:21:15.961Z</time>
      </trkpt>
      <trkpt lat="43.75094" lon="6.75489">
        <ele>1259.912014</ele>
        <time>2024-12-05T17:21:20.207Z</time>
      </trkpt>
      <trkpt lat="43.7506" lon="6.7545">
        <ele>1250.39417</ele>
        <time>2024-12-05T17:21:28.737Z</time>
      </trkpt>
      <trkpt lat="43.75033" lon="6.75412">
        <ele>1241.224657</ele>
        <time>2024-12-05T17:21:36.230Z</time>
      </trkpt>
      <trkpt lat="43.75011" lon="6.75391">
        <ele>1234.79318</ele>
        <time>2024-12-05T17:21:41.464Z</time>
      </trkpt>
      <trkpt lat="43.75001" lon="6.75372">
        <ele>1230.819255</ele>
        <time>2024-12-05T17:21:44.693Z</time>
      </trkpt>
      <trkpt lat="43.74978" lon="6.7535">
        <ele>1224.162685</ele>
        <time>2024-12-05T17:21:50.092Z</time>
      </trkpt>
      <trkpt lat="43.74956" lon="6.75321">
        <ele>1216.871301</ele>
        <time>2024-12-05T17:21:56.033Z</time>
      </trkpt>
      <trkpt lat="43.74915" lon="6.75279">
        <ele>1204.658383</ele>
        <time>2024-12-05T17:22:05.967Z</time>
      </trkpt>
      <trkpt lat="43.74896" lon="6.75268">
        <ele>1199.735129</ele>
        <time>2024-12-05T17:22:09.891Z</time>
      </trkpt>
      <trkpt lat="43.74878" lon="6.75263">
        <ele>1195.257735</ele>
        <time>2024-12-05T17:22:13.470Z</time>
      </trkpt>
      <trkpt lat="43.74846" lon="6.75268">
        <ele>1187.547561</ele>
        <time>2024-12-05T17:22:19.621Z</time>
      </trkpt>
      <trkpt lat="43.74844" lon="6.75265">
        <ele>1186.736598</ele>
        <time>2024-12-05T17:22:20.270Z</time>
      </trkpt>
      <trkpt lat="43.74782" lon="6.75277">
        <ele>1171.571543</ele>
        <time>2024-12-05T17:22:32.340Z</time>
      </trkpt>
      <trkpt lat="43.7477" lon="6.75287">
        <ele>1168.242006</ele>
        <time>2024-12-05T17:22:34.994Z</time>
      </trkpt>
      <trkpt lat="43.74746" lon="6.75298">
        <ele>1162.176461</ele>
        <time>2024-12-05T17:22:39.951Z</time>
      </trkpt>
      <trkpt lat="43.74729" lon="6.75313">
        <ele>1157.835525</ele>
        <time>2024-12-05T17:22:43.942Z</time>
      </trkpt>
      <trkpt lat="43.74714" lon="6.75316">
        <ele>1154.724761</ele>
        <time>2024-12-05T17:22:46.814Z</time>
      </trkpt>
      <trkpt lat="43.74696" lon="6.75315">
        <ele>1150.92069</ele>
        <time>2024-12-05T17:22:50.309Z</time>
      </trkpt>
      <trkpt lat="43.74684" lon="6.7531">
        <ele>1148.198607</ele>
        <time>2024-12-05T17:22:52.815Z</time>
      </trkpt>
      <trkpt lat="43.74666" lon="6.75304">
        <ele>1144.348987</ele>
        <time>2024-12-05T17:22:56.358Z</time>
      </trkpt>
      <trkpt lat="43.7467" lon="6.75294">
        <ele>1142.545712</ele>
        <time>2024-12-05T17:22:58.025Z</time>
      </trkpt>
      <trkpt lat="43.74677" lon="6.75258">
        <ele>1136.837652</ele>
        <time>2024-12-05T17:23:03.270Z</time>
      </trkpt>
      <trkpt lat="43.74694" lon="6.75232">
        <ele>1131.515268</ele>
        <time>2024-12-05T17:23:08.170Z</time>
      </trkpt>
      <trkpt lat="43.74699" lon="6.75217">
        <ele>1128.919333</ele>
        <time>2024-12-05T17:23:10.582Z</time>
      </trkpt>
      <trkpt lat="43.74693" lon="6.75207">
        <ele>1127.04614</ele>
        <time>2024-12-05T17:23:12.322Z</time>
      </trkpt>
      <trkpt lat="43.74686" lon="6.75202">
        <ele>1125.365719</ele>
        <time>2024-12-05T17:23:13.876Z</time>
      </trkpt>
      <trkpt lat="43.74642" lon="6.75176">
        <ele>1117.501981</ele>
        <time>2024-12-05T17:23:23.412Z</time>
      </trkpt>
      <trkpt lat="43.74632" lon="6.75172">
        <ele>1115.892793</ele>
        <time>2024-12-05T17:23:25.371Z</time>
      </trkpt>
      <trkpt lat="43.74613" lon="6.75181">
        <ele>1112.568242</ele>
        <time>2024-12-05T17:23:29.415Z</time>
      </trkpt>
      <trkpt lat="43.7459" lon="6.75201">
        <ele>1108.156487</ele>
        <time>2024-12-05T17:23:34.842Z</time>
      </trkpt>
      <trkpt lat="43.74563" lon="6.75214">
        <ele>1103.479823</ele>
        <time>2024-12-05T17:23:40.608Z</time>
      </trkpt>
      <trkpt lat="43.74521" lon="6.75219">
        <ele>1096.636569</ele>
        <time>2024-12-05T17:23:49.087Z</time>
      </trkpt>
      <trkpt lat="43.74498" lon="6.7519">
        <ele>1093.26616</ele>
        <time>2024-12-05T17:23:55.521Z</time>
      </trkpt>
      <trkpt lat="43.74479" lon="6.7518">
        <ele>1091.232945</ele>
        <time>2024-12-05T17:23:59.829Z</time>
      </trkpt>
      <trkpt lat="43.74452" lon="6.75182">
        <ele>1088.49615</ele>
        <time>2024-12-05T17:24:05.726Z</time>
      </trkpt>
      <trkpt lat="43.74435" lon="6.75197">
        <ele>1086.526142</ele>
        <time>2024-12-05T17:24:10.015Z</time>
      </trkpt>
      <trkpt lat="43.74429" lon="6.75194">
        <ele>1085.908384</ele>
        <time>2024-12-05T17:24:11.356Z</time>
      </trkpt>
      <trkpt lat="43.74396" lon="6.75252">
        <ele>1080.57617</ele>
        <time>2024-12-05T17:24:17.803Z</time>
      </trkpt>
      <trkpt lat="43.74383" lon="6.75282">
        <ele>1078.049067</ele>
        <time>2024-12-05T17:24:20.952Z</time>
      </trkpt>
      <trkpt lat="43.74375" lon="6.75304">
        <ele>1076.542921</ele>
        <time>2024-12-05T17:24:23.226Z</time>
      </trkpt>
      <trkpt lat="43.74369" lon="6.75299">
        <ele>1075.898756</ele>
        <time>2024-12-05T17:24:25.024Z</time>
      </trkpt>
      <trkpt lat="43.74364" lon="6.7528">
        <ele>1074.706173</ele>
        <time>2024-12-05T17:24:28.405Z</time>
      </trkpt>
      <trkpt lat="43.74361" lon="6.75247">
        <ele>1072.606289</ele>
        <time>2024-12-05T17:24:34.199Z</time>
      </trkpt>
      <trkpt lat="43.74351" lon="6.75247">
        <ele>1071.732978</ele>
        <time>2024-12-05T17:24:36.515Z</time>
      </trkpt>
      <trkpt lat="43.74341" lon="6.75251">
        <ele>1070.800578</ele>
        <time>2024-12-05T17:24:38.942Z</time>
      </trkpt>
      <trkpt lat="43.74334" lon="6.75259">
        <ele>1070.016761</ele>
        <time>2024-12-05T17:24:40.960Z</time>
      </trkpt>
      <trkpt lat="43.74321" lon="6.75283">
        <ele>1068.136389</ele>
        <time>2024-12-05T17:24:45.690Z</time>
      </trkpt>
      <trkpt lat="43.74315" lon="6.75321">
        <ele>1065.73652</ele>
        <time>2024-12-05T17:24:51.657Z</time>
      </trkpt>
      <trkpt lat="43.74317" lon="6.75341">
        <ele>1064.514408</ele>
        <time>2024-12-05T17:24:54.700Z</time>
      </trkpt>
      <trkpt lat="43.74335" lon="6.75379">
        <ele>1061.457653</ele>
        <time>2024-12-05T17:25:01.709Z</time>
      </trkpt>
      <trkpt lat="43.74337" lon="6.75391">
        <ele>1060.478475</ele>
        <time>2024-12-05T17:25:03.649Z</time>
      </trkpt>
      <trkpt lat="43.74333" lon="6.75398">
        <ele>1059.795538</ele>
        <time>2024-12-05T17:25:04.991Z</time>
      </trkpt>
      <trkpt lat="43.743" lon="6.75425">
        <ele>1055.604357</ele>
        <time>2024-12-05T17:25:13.317Z</time>
      </trkpt>
      <trkpt lat="43.74294" lon="6.75439">
        <ele>1054.317675</ele>
        <time>2024-12-05T17:25:15.821Z</time>
      </trkpt>
      <trkpt lat="43.74297" lon="6.75458">
        <ele>1052.819316</ele>
        <time>2024-12-05T17:25:18.743Z</time>
      </trkpt>
      <trkpt lat="43.7431" lon="6.75481">
        <ele>1050.471413</ele>
        <time>2024-12-05T17:25:23.277Z</time>
      </trkpt>
      <trkpt lat="43.7431" lon="6.75491">
        <ele>1049.733183</ele>
        <time>2024-12-05T17:25:24.693Z</time>
      </trkpt>
      <trkpt lat="43.74295" lon="6.75517">
        <ele>1047.095304</ele>
        <time>2024-12-05T17:25:29.823Z</time>
      </trkpt>
      <trkpt lat="43.7429" lon="6.75537">
        <ele>1045.445972</ele>
        <time>2024-12-05T17:25:33.013Z</time>
      </trkpt>
      <trkpt lat="43.74258" lon="6.75579">
        <ele>1040.844564</ele>
        <time>2024-12-05T17:25:42.355Z</time>
      </trkpt>
      <trkpt lat="43.74245" lon="6.75585">
        <ele>1039.507375</ele>
        <time>2024-12-05T17:25:45.246Z</time>
      </trkpt>
      <trkpt lat="43.74216" lon="6.75604">
        <ele>1036.34767</ele>
        <time>2024-12-05T17:25:52.063Z</time>
      </trkpt>
      <trkpt lat="43.74198" lon="6.75606">
        <ele>1034.614474</ele>
        <time>2024-12-05T17:25:55.820Z</time>
      </trkpt>
      <trkpt lat="43.74187" lon="6.75613">
        <ele>1033.330297</ele>
        <time>2024-12-05T17:25:58.575Z</time>
      </trkpt>
      <trkpt lat="43.7418" lon="6.75622">
        <ele>1032.454079</ele>
        <time>2024-12-05T17:26:00.468Z</time>
      </trkpt>
      <trkpt lat="43.74178" lon="6.75636">
        <ele>1031.402163</ele>
        <time>2024-12-05T17:26:02.750Z</time>
      </trkpt>
      <trkpt lat="43.74175" lon="6.75646">
        <ele>1030.646106</ele>
        <time>2024-12-05T17:26:04.396Z</time>
      </trkpt>
      <trkpt lat="43.74155" lon="6.75697">
        <ele>1026.501536</ele>
        <time>2024-12-05T17:26:13.602Z</time>
      </trkpt>
      <trkpt lat="43.74148" lon="6.7576">
        <ele>1023.183244</ele>
        <time>2024-12-05T17:26:24.013Z</time>
      </trkpt>
      <trkpt lat="43.74138" lon="6.7579">
        <ele>1021.734219</ele>
        <time>2024-12-05T17:26:29.391Z</time>
      </trkpt>
      <trkpt lat="43.74128" lon="6.75845">
        <ele>1019.159316</ele>
        <time>2024-12-05T17:26:39.044Z</time>
      </trkpt>
      <trkpt lat="43.74116" lon="6.7589">
        <ele>1016.989888</ele>
        <time>2024-12-05T17:26:47.221Z</time>
      </trkpt>
      <trkpt lat="43.74099" lon="6.75923">
        <ele>1015.206298</ele>
        <time>2024-12-05T17:26:54.011Z</time>
      </trkpt>
      <trkpt lat="43.74092" lon="6.75948">
        <ele>1014.034389</ele>
        <time>2024-12-05T17:26:58.660Z</time>
      </trkpt>
      <trkpt lat="43.74081" lon="6.75955">
        <ele>1013.518907</ele>
        <time>2024-12-05T17:27:01.769Z</time>
      </trkpt>
      <trkpt lat="43.74074" lon="6.75976">
        <ele>1012.86391</ele>
        <time>2024-12-05T17:27:05.749Z</time>
      </trkpt>
      <trkpt lat="43.74069" lon="6.76016">
        <ele>1011.693708</ele>
        <time>2024-12-05T17:27:12.939Z</time>
      </trkpt>
      <trkpt lat="43.7405" lon="6.76029">
        <ele>1010.840582</ele>
        <time>2024-12-05T17:27:18.239Z</time>
      </trkpt>
      <trkpt lat="43.74042" lon="6.76045">
        <ele>1010.28998</ele>
        <time>2024-12-05T17:27:21.700Z</time>
      </trkpt>
      <trkpt lat="43.74041" lon="6.76073">
        <ele>1009.47774</ele>
        <time>2024-12-05T17:27:26.908Z</time>
      </trkpt>
      <trkpt lat="43.74047" lon="6.76088">
        <ele>1008.987485</ele>
        <time>2024-12-05T17:27:30.093Z</time>
      </trkpt>
      <trkpt lat="43.74049" lon="6.76098">
        <ele>1008.675983</ele>
        <time>2024-12-05T17:27:32.127Z</time>
      </trkpt>
      <trkpt lat="43.74065" lon="6.7613">
        <ele>1007.553958</ele>
        <time>2024-12-05T17:27:39.518Z</time>
      </trkpt>
      <trkpt lat="43.74081" lon="6.76147">
        <ele>1006.6177</ele>
        <time>2024-12-05T17:27:44.808Z</time>
      </trkpt>
      <trkpt lat="43.74087" lon="6.76163">
        <ele>1005.707935</ele>
        <time>2024-12-05T17:27:47.931Z</time>
      </trkpt>
      <trkpt lat="43.74087" lon="6.76178">
        <ele>1004.915655</ele>
        <time>2024-12-05T17:27:50.588Z</time>
      </trkpt>
      <trkpt lat="43.74086" lon="6.7619">
        <ele>1004.257331</ele>
        <time>2024-12-05T17:27:52.780Z</time>
      </trkpt>
      <trkpt lat="43.74062" lon="6.76225">
        <ele>1001.724337</ele>
        <time>2024-12-05T17:28:01.027Z</time>
      </trkpt>
      <trkpt lat="43.74041" lon="6.7624">
        <ele>1000.007855</ele>
        <time>2024-12-05T17:28:06.339Z</time>
      </trkpt>
      <trkpt lat="43.74031" lon="6.7627">
        <ele>998.248344</ele>
        <time>2024-12-05T17:28:11.604Z</time>
      </trkpt>
      <trkpt lat="43.74028" lon="6.76283">
        <ele>997.571186</ele>
        <time>2024-12-05T17:28:13.609Z</time>
      </trkpt>
      <trkpt lat="43.74029" lon="6.76301">
        <ele>996.585178</ele>
        <time>2024-12-05T17:28:16.504Z</time>
      </trkpt>
      <trkpt lat="43.74039" lon="6.76333">
        <ele>994.726038</ele>
        <time>2024-12-05T17:28:21.957Z</time>
      </trkpt>
      <trkpt lat="43.74041" lon="6.76347">
        <ele>994.020009</ele>
        <time>2024-12-05T17:28:24.013Z</time>
      </trkpt>
      <trkpt lat="43.74038" lon="6.76359">
        <ele>993.321018</ele>
        <time>2024-12-05T17:28:26.041Z</time>
      </trkpt>
      <trkpt lat="43.74032" lon="6.7637">
        <ele>992.618522</ele>
        <time>2024-12-05T17:28:28.074Z</time>
      </trkpt>
      <trkpt lat="43.74008" lon="6.76395">
        <ele>990.351914</ele>
        <time>2024-12-05T17:28:34.704Z</time>
      </trkpt>
      <trkpt lat="43.73999" lon="6.76409">
        <ele>989.356818</ele>
        <time>2024-12-05T17:28:37.653Z</time>
      </trkpt>
      <trkpt lat="43.73995" lon="6.76421">
        <ele>988.648356</ele>
        <time>2024-12-05T17:28:39.763Z</time>
      </trkpt>
      <trkpt lat="43.7397" lon="6.76449">
        <ele>986.298949</ele>
        <time>2024-12-05T17:28:46.846Z</time>
      </trkpt>
      <trkpt lat="43.73984" lon="6.76446">
        <ele>985.29895</ele>
        <time>2024-12-05T17:28:49.876Z</time>
      </trkpt>
      <trkpt lat="43.73998" lon="6.76439">
        <ele>984.153656</ele>
        <time>2024-12-05T17:28:53.380Z</time>
      </trkpt>
      <trkpt lat="43.74011" lon="6.76441">
        <ele>983.189393</ele>
        <time>2024-12-05T17:28:56.357Z</time>
      </trkpt>
      <trkpt lat="43.74014" lon="6.76453">
        <ele>982.477784</ele>
        <time>2024-12-05T17:28:58.595Z</time>
      </trkpt>
      <trkpt lat="43.73992" lon="6.7651">
        <ele>980.649114</ele>
        <time>2024-12-05T17:29:10.000Z</time>
      </trkpt>
      <trkpt lat="43.73962" lon="6.76558">
        <ele>981.10329</ele>
        <time>2024-12-05T17:29:23.070Z</time>
      </trkpt>
      <trkpt lat="43.73942" lon="6.76609">
        <ele>981.520348</ele>
        <time>2024-12-05T17:29:36.024Z</time>
      </trkpt>
      <trkpt lat="43.73916" lon="6.76634">
        <ele>981.828554</ele>
        <time>2024-12-05T17:29:45.967Z</time>
      </trkpt>
      <trkpt lat="43.73891" lon="6.76697">
        <ele>983.186428</ele>
        <time>2024-12-05T17:30:04.261Z</time>
      </trkpt>
      <trkpt lat="43.73831" lon="6.76788">
        <ele>990.704358</ele>
        <time>2024-12-05T17:30:43.119Z</time>
      </trkpt>
      <trkpt lat="43.73793" lon="6.76846">
        <ele>995.498003</ele>
        <time>2024-12-05T17:31:09.541Z</time>
      </trkpt>
      <trkpt lat="43.73787" lon="6.7686">
        <ele>996.46338</ele>
        <time>2024-12-05T17:31:14.700Z</time>
      </trkpt>
      <trkpt lat="43.73787" lon="6.76879">
        <ele>997.596092</ele>
        <time>2024-12-05T17:31:21.026Z</time>
      </trkpt>
      <trkpt lat="43.73785" lon="6.76883">
        <ele>997.846619</ele>
        <time>2024-12-05T17:31:22.719Z</time>
      </trkpt>
      <trkpt lat="43.73782" lon="6.7689">
        <ele>998.237657</ele>
        <time>2024-12-05T17:31:25.544Z</time>
      </trkpt>
      <trkpt lat="43.73738" lon="6.76946">
        <ele>1002.071549</ele>
        <time>2024-12-05T17:31:51.942Z</time>
      </trkpt>
      <trkpt lat="43.73722" lon="6.76971">
        <ele>1003.643038</ele>
        <time>2024-12-05T17:32:02.246Z</time>
      </trkpt>
      <trkpt lat="43.73669" lon="6.77013">
        <ele>1007.617547</ele>
        <time>2024-12-05T17:32:23.719Z</time>
      </trkpt>
      <trkpt lat="43.73628" lon="6.77054">
        <ele>1009.040228</ele>
        <time>2024-12-05T17:32:39.669Z</time>
      </trkpt>
      <trkpt lat="43.73556" lon="6.77071">
        <ele>1008.792711</ele>
        <time>2024-12-05T17:33:01.456Z</time>
      </trkpt>
      <trkpt lat="43.73539" lon="6.77072">
        <ele>1008.733357</ele>
        <time>2024-12-05T17:33:06.388Z</time>
      </trkpt>
      <trkpt lat="43.73507" lon="6.77088">
        <ele>1008.61958</ele>
        <time>2024-12-05T17:33:16.384Z</time>
      </trkpt>
      <trkpt lat="43.73479" lon="6.77113">
        <ele>1008.186869</ele>
        <time>2024-12-05T17:33:25.595Z</time>
      </trkpt>
      <trkpt lat="43.73449" lon="6.7712">
        <ele>1006.164926</ele>
        <time>2024-12-05T17:33:32.977Z</time>
      </trkpt>
      <trkpt lat="43.73439" lon="6.77125">
        <ele>1005.442808</ele>
        <time>2024-12-05T17:33:35.510Z</time>
      </trkpt>
      <trkpt lat="43.73435" lon="6.77131">
        <ele>1005.011537</ele>
        <time>2024-12-05T17:33:36.992Z</time>
      </trkpt>
      <trkpt lat="43.73434" lon="6.77138">
        <ele>1004.699779</ele>
        <time>2024-12-05T17:33:38.114Z</time>
      </trkpt>
      <trkpt lat="43.73404" lon="6.77166">
        <ele>1002.239124</ele>
        <time>2024-12-05T17:33:43.018Z</time>
      </trkpt>
      <trkpt lat="43.7336" lon="6.77184">
        <ele>999.185401</ele>
        <time>2024-12-05T17:33:48.983Z</time>
      </trkpt>
      <trkpt lat="43.73328" lon="6.77204">
        <ele>996.778009</ele>
        <time>2024-12-05T17:33:53.632Z</time>
      </trkpt>
      <trkpt lat="43.73292" lon="6.77241">
        <ele>993.497306</ele>
        <time>2024-12-05T17:33:59.314Z</time>
      </trkpt>
      <trkpt lat="43.73278" lon="6.77261">
        <ele>992.073557</ele>
        <time>2024-12-05T17:34:01.791Z</time>
      </trkpt>
      <trkpt lat="43.73269" lon="6.77281">
        <ele>990.752179</ele>
        <time>2024-12-05T17:34:04.120Z</time>
      </trkpt>
      <trkpt lat="43.73232" lon="6.77387">
        <ele>984.4919</ele>
        <time>2024-12-05T17:34:15.637Z</time>
      </trkpt>
      <trkpt lat="43.73193" lon="6.77512">
        <ele>978.565755</ele>
        <time>2024-12-05T17:34:29.330Z</time>
      </trkpt>
      <trkpt lat="43.73173" lon="6.77557">
        <ele>976.401426</ele>
        <time>2024-12-05T17:34:34.565Z</time>
      </trkpt>
      <trkpt lat="43.7316" lon="6.77579">
        <ele>975.193274</ele>
        <time>2024-12-05T17:34:37.504Z</time>
      </trkpt>
      <trkpt lat="43.73139" lon="6.77605">
        <ele>973.620361</ele>
        <time>2024-12-05T17:34:41.343Z</time>
      </trkpt>
      <trkpt lat="43.73106" lon="6.77636">
        <ele>971.727573</ele>
        <time>2024-12-05T17:34:46.962Z</time>
      </trkpt>
      <trkpt lat="43.73056" lon="6.77742">
        <ele>967.828698</ele>
        <time>2024-12-05T17:35:00.663Z</time>
      </trkpt>
      <trkpt lat="43.7304" lon="6.77798">
        <ele>965.943803</ele>
        <time>2024-12-05T17:35:07.268Z</time>
      </trkpt>
      <trkpt lat="43.73022" lon="6.77861">
        <ele>963.768971</ele>
        <time>2024-12-05T17:35:14.161Z</time>
      </trkpt>
      <trkpt lat="43.73003" lon="6.77906">
        <ele>962.063917</ele>
        <time>2024-12-05T17:35:19.418Z</time>
      </trkpt>
      <trkpt lat="43.72984" lon="6.77966">
        <ele>959.907605</ele>
        <time>2024-12-05T17:35:26.132Z</time>
      </trkpt>
      <trkpt lat="43.72962" lon="6.78032">
        <ele>957.512524</ele>
        <time>2024-12-05T17:35:33.535Z</time>
      </trkpt>
      <trkpt lat="43.72957" lon="6.78039">
        <ele>957.188689</ele>
        <time>2024-12-05T17:35:34.532Z</time>
      </trkpt>
      <trkpt lat="43.72954" lon="6.7805">
        <ele>957.08935</ele>
        <time>2024-12-05T17:35:35.744Z</time>
      </trkpt>
      <trkpt lat="43.72914" lon="6.78103">
        <ele>958.298553</ele>
        <time>2024-12-05T17:35:45.344Z</time>
      </trkpt>
      <trkpt lat="43.72905" lon="6.78116">
        <ele>958.594077</ele>
        <time>2024-12-05T17:35:48.318Z</time>
      </trkpt>
      <trkpt lat="43.72899" lon="6.78128">
        <ele>958.828119</ele>
        <time>2024-12-05T17:35:50.832Z</time>
      </trkpt>
      <trkpt lat="43.72894" lon="6.7814">
        <ele>959.046219</ele>
        <time>2024-12-05T17:35:53.235Z</time>
      </trkpt>
      <trkpt lat="43.72889" lon="6.7816">
        <ele>959.382931</ele>
        <time>2024-12-05T17:35:57.152Z</time>
      </trkpt>
      <trkpt lat="43.72889" lon="6.78178">
        <ele>959.677898</ele>
        <time>2024-12-05T17:36:00.703Z</time>
      </trkpt>
      <trkpt lat="43.72898" lon="6.78196">
        <ele>960.01914</ele>
        <time>2024-12-05T17:36:04.914Z</time>
      </trkpt>
      <trkpt lat="43.72906" lon="6.7822">
        <ele>960.452459</ele>
        <time>2024-12-05T17:36:10.584Z</time>
      </trkpt>
      <trkpt lat="43.72906" lon="6.78234">
        <ele>960.675774</ele>
        <time>2024-12-05T17:36:13.722Z</time>
      </trkpt>
      <trkpt lat="43.72895" lon="6.78262">
        <ele>961.893433</ele>
        <time>2024-12-05T17:36:21.299Z</time>
      </trkpt>
      <trkpt lat="43.72892" lon="6.78276">
        <ele>962.909448</ele>
        <time>2024-12-05T17:36:25.138Z</time>
      </trkpt>
      <trkpt lat="43.72889" lon="6.78316">
        <ele>965.717656</ele>
        <time>2024-12-05T17:36:36.462Z</time>
      </trkpt>
      <trkpt lat="43.7289" lon="6.78343">
        <ele>967.576281</ele>
        <time>2024-12-05T17:36:44.080Z</time>
      </trkpt>
      <trkpt lat="43.72906" lon="6.78399">
        <ele>971.789756</ele>
        <time>2024-12-05T17:37:01.857Z</time>
      </trkpt>
      <trkpt lat="43.72917" lon="6.7845">
        <ele>975.504797</ele>
        <time>2024-12-05T17:37:18.123Z</time>
      </trkpt>
      <trkpt lat="43.72917" lon="6.78467">
        <ele>976.683176</ele>
        <time>2024-12-05T17:37:23.342Z</time>
      </trkpt>
      <trkpt lat="43.72916" lon="6.78483">
        <ele>977.809316</ele>
        <time>2024-12-05T17:37:28.532Z</time>
      </trkpt>
      <trkpt lat="43.72908" lon="6.78524">
        <ele>981.151044</ele>
        <time>2024-12-05T17:37:42.333Z</time>
      </trkpt>
      <trkpt lat="43.72903" lon="6.78618">
        <ele>988.707714</ele>
        <time>2024-12-05T17:38:11.951Z</time>
      </trkpt>
      <trkpt lat="43.72905" lon="6.78636">
        <ele>990.1934</ele>
        <time>2024-12-05T17:38:17.699Z</time>
      </trkpt>
      <trkpt lat="43.72917" lon="6.78658">
        <ele>992.422689</ele>
        <time>2024-12-05T17:38:26.287Z</time>
      </trkpt>
      <trkpt lat="43.72929" lon="6.7868">
        <ele>994.639119</ele>
        <time>2024-12-05T17:38:34.892Z</time>
      </trkpt>
      <trkpt lat="43.72936" lon="6.78711">
        <ele>997.233807</ele>
        <time>2024-12-05T17:38:44.968Z</time>
      </trkpt>
      <trkpt lat="43.72934" lon="6.78796">
        <ele>1004.118866</ele>
        <time>2024-12-05T17:39:11.802Z</time>
      </trkpt>
      <trkpt lat="43.72942" lon="6.7885">
        <ele>1008.624073</ele>
        <time>2024-12-05T17:39:29.194Z</time>
      </trkpt>
      <trkpt lat="43.72946" lon="6.78899">
        <ele>1012.599579</ele>
        <time>2024-12-05T17:39:44.764Z</time>
      </trkpt>
      <trkpt lat="43.72948" lon="6.79001">
        <ele>1020.244728</ele>
        <time>2024-12-05T17:40:17.770Z</time>
      </trkpt>
      <trkpt lat="43.72949" lon="6.79025">
        <ele>1021.726359</ele>
        <time>2024-12-05T17:40:25.330Z</time>
      </trkpt>
      <trkpt lat="43.72943" lon="6.79085">
        <ele>1025.376046</ele>
        <time>2024-12-05T17:40:42.990Z</time>
      </trkpt>
      <trkpt lat="43.72949" lon="6.79187">
        <ele>1031.568488</ele>
        <time>2024-12-05T17:41:08.151Z</time>
      </trkpt>
      <trkpt lat="43.72958" lon="6.79263">
        <ele>1035.147173</ele>
        <time>2024-12-05T17:41:23.492Z</time>
      </trkpt>
      <trkpt lat="43.7295" lon="6.79268">
        <ele>1035.600103</ele>
        <time>2024-12-05T17:41:25.832Z</time>
      </trkpt>
      <trkpt lat="43.72913" lon="6.79277">
        <ele>1037.445645</ele>
        <time>2024-12-05T17:41:35.316Z</time>
      </trkpt>
      <trkpt lat="43.72886" lon="6.79336">
        <ele>1039.888253</ele>
        <time>2024-12-05T17:41:48.103Z</time>
      </trkpt>
      <trkpt lat="43.7287" lon="6.79364">
        <ele>1041.173565</ele>
        <time>2024-12-05T17:41:55.666Z</time>
      </trkpt>
      <trkpt lat="43.72848" lon="6.79401">
        <ele>1043.262073</ele>
        <time>2024-12-05T17:42:07.267Z</time>
      </trkpt>
      <trkpt lat="43.72817" lon="6.79434">
        <ele>1046.617465</ele>
        <time>2024-12-05T17:42:21.248Z</time>
      </trkpt>
      <trkpt lat="43.72807" lon="6.7944">
        <ele>1047.517773</ele>
        <time>2024-12-05T17:42:25.850Z</time>
      </trkpt>
      <trkpt lat="43.72795" lon="6.79443">
        <ele>1048.551574</ele>
        <time>2024-12-05T17:42:31.206Z</time>
      </trkpt>
      <trkpt lat="43.72779" lon="6.79441">
        <ele>1049.989835</ele>
        <time>2024-12-05T17:42:38.735Z</time>
      </trkpt>
      <trkpt lat="43.72762" lon="6.79434">
        <ele>1051.479001</ele>
        <time>2024-12-05T17:42:46.668Z</time>
      </trkpt>
      <trkpt lat="43.72696" lon="6.79392">
        <ele>1057.716106</ele>
        <time>2024-12-05T17:43:20.287Z</time>
      </trkpt>
      <trkpt lat="43.72674" lon="6.79383">
        <ele>1059.487256</ele>
        <time>2024-12-05T17:43:30.176Z</time>
      </trkpt>
      <trkpt lat="43.72659" lon="6.79385">
        <ele>1060.701175</ele>
        <time>2024-12-05T17:43:36.617Z</time>
      </trkpt>
      <trkpt lat="43.72624" lon="6.79397">
        <ele>1063.485982</ele>
        <time>2024-12-05T17:43:50.896Z</time>
      </trkpt>
      <trkpt lat="43.72571" lon="6.79418">
        <ele>1067.749239</ele>
        <time>2024-12-05T17:44:13.055Z</time>
      </trkpt>
      <trkpt lat="43.72498" lon="6.79414">
        <ele>1071.873285</ele>
        <time>2024-12-05T17:44:43.853Z</time>
      </trkpt>
      <trkpt lat="43.72464" lon="6.79429">
        <ele>1071.957731</ele>
        <time>2024-12-05T17:44:57.810Z</time>
      </trkpt>
      <trkpt lat="43.72386" lon="6.79464">
        <ele>1072.148743</ele>
        <time>2024-12-05T17:45:22.144Z</time>
      </trkpt>
      <trkpt lat="43.72369" lon="6.79476">
        <ele>1072.193949</ele>
        <time>2024-12-05T17:45:26.801Z</time>
      </trkpt>
      <trkpt lat="43.72362" lon="6.79485">
        <ele>1072.216102</ele>
        <time>2024-12-05T17:45:28.961Z</time>
      </trkpt>
      <trkpt lat="43.7234" lon="6.79509">
        <ele>1070.973857</ele>
        <time>2024-12-05T17:45:35.228Z</time>
      </trkpt>
      <trkpt lat="43.72331" lon="6.7951">
        <ele>1070.29158</ele>
        <time>2024-12-05T17:45:37.074Z</time>
      </trkpt>
      <trkpt lat="43.72314" lon="6.79484">
        <ele>1068.268841</ele>
        <time>2024-12-05T17:45:42.459Z</time>
      </trkpt>
      <trkpt lat="43.72308" lon="6.79484">
        <ele>1067.856665</ele>
        <time>2024-12-05T17:45:43.549Z</time>
      </trkpt>
      <trkpt lat="43.72307" lon="6.79489">
        <ele>1067.562347</ele>
        <time>2024-12-05T17:45:44.307Z</time>
      </trkpt>
      <trkpt lat="43.72325" lon="6.7952">
        <ele>1065.241645</ele>
        <time>2024-12-05T17:45:50.346Z</time>
      </trkpt>
      <trkpt lat="43.72327" lon="6.79528">
        <ele>1064.79602</ele>
        <time>2024-12-05T17:45:51.524Z</time>
      </trkpt>
      <trkpt lat="43.72322" lon="6.79529">
        <ele>1064.444258</ele>
        <time>2024-12-05T17:45:52.454Z</time>
      </trkpt>
      <trkpt lat="43.72311" lon="6.79516">
        <ele>1063.341637</ele>
        <time>2024-12-05T17:45:55.453Z</time>
      </trkpt>
      <trkpt lat="43.72249" lon="6.79486">
        <ele>1058.122244</ele>
        <time>2024-12-05T17:46:11.153Z</time>
      </trkpt>
      <trkpt lat="43.72239" lon="6.79466">
        <ele>1057.112509</ele>
        <time>2024-12-05T17:46:15.884Z</time>
      </trkpt>
      <trkpt lat="43.72213" lon="6.79451">
        <ele>1055.59387</ele>
        <time>2024-12-05T17:46:23.605Z</time>
      </trkpt>
      <trkpt lat="43.72184" lon="6.79418">
        <ele>1053.576539</ele>
        <time>2024-12-05T17:46:33.485Z</time>
      </trkpt>
      <trkpt lat="43.72115" lon="6.79401">
        <ele>1049.805489</ele>
        <time>2024-12-05T17:46:50.036Z</time>
      </trkpt>
      <trkpt lat="43.7207" lon="6.79426">
        <ele>1046.416133</ele>
        <time>2024-12-05T17:47:00.652Z</time>
      </trkpt>
      <trkpt lat="43.72052" lon="6.79429">
        <ele>1044.79667</ele>
        <time>2024-12-05T17:47:04.486Z</time>
      </trkpt>
      <trkpt lat="43.71996" lon="6.79402">
        <ele>1039.3878</ele>
        <time>2024-12-05T17:47:17.460Z</time>
      </trkpt>
      <trkpt lat="43.71965" lon="6.7938">
        <ele>1036.309865</ele>
        <time>2024-12-05T17:47:25.126Z</time>
      </trkpt>
      <trkpt lat="43.7187" lon="6.79384">
        <ele>1026.282337</ele>
        <time>2024-12-05T17:47:45.768Z</time>
      </trkpt>
      <trkpt lat="43.71849" lon="6.79399">
        <ele>1023.484235</ele>
        <time>2024-12-05T17:47:50.590Z</time>
      </trkpt>
      <trkpt lat="43.71796" lon="6.79455">
        <ele>1015.618349</ele>
        <time>2024-12-05T17:48:04.113Z</time>
      </trkpt>
      <trkpt lat="43.71771" lon="6.79464">
        <ele>1012.606443</ele>
        <time>2024-12-05T17:48:09.370Z</time>
      </trkpt>
      <trkpt lat="43.71738" lon="6.79459">
        <ele>1009.852562</ele>
        <time>2024-12-05T17:48:16.403Z</time>
      </trkpt>
      <trkpt lat="43.71666" lon="6.79415">
        <ele>1005.842646</ele>
        <time>2024-12-05T17:48:35.292Z</time>
      </trkpt>
      <trkpt lat="43.71643" lon="6.79394">
        <ele>1004.46085</ele>
        <time>2024-12-05T17:48:43.021Z</time>
      </trkpt>
      <trkpt lat="43.7162" lon="6.7939">
        <ele>1003.290076</ele>
        <time>2024-12-05T17:48:49.771Z</time>
      </trkpt>
      <trkpt lat="43.71593" lon="6.79378">
        <ele>1001.80913</ele>
        <time>2024-12-05T17:48:57.804Z</time>
      </trkpt>
      <trkpt lat="43.71548" lon="6.79342">
        <ele>999.18345</ele>
        <time>2024-12-05T17:49:10.893Z</time>
      </trkpt>
      <trkpt lat="43.71517" lon="6.79331">
        <ele>997.511247</ele>
        <time>2024-12-05T17:49:18.847Z</time>
      </trkpt>
      <trkpt lat="43.71483" lon="6.79313">
        <ele>995.67802</ele>
        <time>2024-12-05T17:49:27.360Z</time>
      </trkpt>
      <trkpt lat="43.71453" lon="6.79289">
        <ele>993.906726</ele>
        <time>2024-12-05T17:49:35.483Z</time>
      </trkpt>
      <trkpt lat="43.71389" lon="6.79258">
        <ele>989.330393</ele>
        <time>2024-12-05T17:49:50.647Z</time>
      </trkpt>
      <trkpt lat="43.71355" lon="6.79244">
        <ele>986.469764</ele>
        <time>2024-12-05T17:49:58.597Z</time>
      </trkpt>
      <trkpt lat="43.7133" lon="6.79238">
        <ele>984.367586</ele>
        <time>2024-12-05T17:50:04.599Z</time>
      </trkpt>
      <trkpt lat="43.71319" lon="6.79238">
        <ele>983.547189</ele>
        <time>2024-12-05T17:50:06.903Z</time>
      </trkpt>
      <trkpt lat="43.71308" lon="6.79239">
        <ele>982.64904</ele>
        <time>2024-12-05T17:50:09.427Z</time>
      </trkpt>
      <trkpt lat="43.71284" lon="6.79237">
        <ele>980.681765</ele>
        <time>2024-12-05T17:50:14.844Z</time>
      </trkpt>
      <trkpt lat="43.71265" lon="6.7923">
        <ele>979.140326</ele>
        <time>2024-12-05T17:50:19.038Z</time>
      </trkpt>
      <trkpt lat="43.71235" lon="6.79215">
        <ele>976.006364</ele>
        <time>2024-12-05T17:50:25.957Z</time>
      </trkpt>
      <trkpt lat="43.70978" lon="6.79265">
        <ele>945.850104</ele>
        <time>2024-12-05T17:51:20.428Z</time>
      </trkpt>
      <trkpt lat="43.7086" lon="6.79273">
        <ele>930.000014</ele>
        <time>2024-12-05T17:51:45.005Z</time>
      </trkpt>
      <trkpt lat="43.70831" lon="6.79279">
        <ele>925.142219</ele>
        <time>2024-12-05T17:51:51.006Z</time>
      </trkpt>
      <trkpt lat="43.70797" lon="6.79282">
        <ele>919.564088</ele>
        <time>2024-12-05T17:51:57.808Z</time>
      </trkpt>
      <trkpt lat="43.7077" lon="6.79294">
        <ele>914.912582</ele>
        <time>2024-12-05T17:52:03.420Z</time>
      </trkpt>
      <trkpt lat="43.70684" lon="6.79357">
        <ele>899.403867</ele>
        <time>2024-12-05T17:52:22.424Z</time>
      </trkpt>
      <trkpt lat="43.70675" lon="6.79358">
        <ele>897.919948</ele>
        <time>2024-12-05T17:52:24.309Z</time>
      </trkpt>
      <trkpt lat="43.70663" lon="6.79351">
        <ele>895.913084</ele>
        <time>2024-12-05T17:52:26.850Z</time>
      </trkpt>
      <trkpt lat="43.7065" lon="6.79336">
        <ele>893.314605</ele>
        <time>2024-12-05T17:52:30.199Z</time>
      </trkpt>
      <trkpt lat="43.70648" lon="6.79321">
        <ele>891.621093</ele>
        <time>2024-12-05T17:52:32.383Z</time>
      </trkpt>
      <trkpt lat="43.70646" lon="6.79305">
        <ele>889.814998</ele>
        <time>2024-12-05T17:52:34.727Z</time>
      </trkpt>
      <trkpt lat="43.70652" lon="6.79277">
        <ele>886.539565</ele>
        <time>2024-12-05T17:52:39.039Z</time>
      </trkpt>
      <trkpt lat="43.70649" lon="6.79265">
        <ele>885.190918</ele>
        <time>2024-12-05T17:52:40.828Z</time>
      </trkpt>
      <trkpt lat="43.70642" lon="6.79264">
        <ele>884.105108</ele>
        <time>2024-12-05T17:52:42.279Z</time>
      </trkpt>
      <trkpt lat="43.7062" lon="6.79365">
        <ele>877.304772</ele>
        <time>2024-12-05T17:52:58.901Z</time>
      </trkpt>
      <trkpt lat="43.70602" lon="6.79383">
        <ele>876.619943</ele>
        <time>2024-12-05T17:53:04.289Z</time>
      </trkpt>
      <trkpt lat="43.70598" lon="6.79401">
        <ele>876.198328</ele>
        <time>2024-12-05T17:53:07.833Z</time>
      </trkpt>
      <trkpt lat="43.70599" lon="6.79418">
        <ele>875.810387</ele>
        <time>2024-12-05T17:53:11.373Z</time>
      </trkpt>
      <trkpt lat="43.70616" lon="6.79437">
        <ele>875.120603</ele>
        <time>2024-12-05T17:53:17.939Z</time>
      </trkpt>
      <trkpt lat="43.70645" lon="6.79451">
        <ele>874.168617</ele>
        <time>2024-12-05T17:53:27.137Z</time>
      </trkpt>
      <trkpt lat="43.70673" lon="6.79456">
        <ele>873.300042</ele>
        <time>2024-12-05T17:53:35.689Z</time>
      </trkpt>
      <trkpt lat="43.70704" lon="6.79444">
        <ele>872.158135</ele>
        <time>2024-12-05T17:53:45.730Z</time>
      </trkpt>
      <trkpt lat="43.70723" lon="6.79425">
        <ele>871.288542</ele>
        <time>2024-12-05T17:53:52.924Z</time>
      </trkpt>
      <trkpt lat="43.70808" lon="6.79396">
        <ele>867.996466</ele>
        <time>2024-12-05T17:54:17.394Z</time>
      </trkpt>
      <trkpt lat="43.70828" lon="6.794">
        <ele>867.248204</ele>
        <time>2024-12-05T17:54:21.857Z</time>
      </trkpt>
      <trkpt lat="43.70859" lon="6.79399">
        <ele>865.854051</ele>
        <time>2024-12-05T17:54:28.395Z</time>
      </trkpt>
      <trkpt lat="43.70905" lon="6.79414">
        <ele>860.911931</ele>
        <time>2024-12-05T17:54:38.104Z</time>
      </trkpt>
      <trkpt lat="43.70917" lon="6.7943">
        <ele>859.198263</ele>
        <time>2024-12-05T17:54:41.510Z</time>
      </trkpt>
      <trkpt lat="43.70924" lon="6.79447">
        <ele>857.713897</ele>
        <time>2024-12-05T17:54:44.463Z</time>
      </trkpt>
      <trkpt lat="43.70941" lon="6.79491">
        <ele>853.970402</ele>
        <time>2024-12-05T17:54:52.021Z</time>
      </trkpt>
      <trkpt lat="43.70944" lon="6.79498">
        <ele>853.378571</ele>
        <time>2024-12-05T17:54:53.204Z</time>
      </trkpt>
      <trkpt lat="43.71002" lon="6.79511">
        <ele>847.346591</ele>
        <time>2024-12-05T17:55:06.142Z</time>
      </trkpt>
      <trkpt lat="43.71057" lon="6.79551">
        <ele>844.176808</ele>
        <time>2024-12-05T17:55:21.592Z</time>
      </trkpt>
      <trkpt lat="43.71071" lon="6.79571">
        <ele>843.158231</ele>
        <time>2024-12-05T17:55:26.840Z</time>
      </trkpt>
      <trkpt lat="43.71096" lon="6.79633">
        <ele>840.503879</ele>
        <time>2024-12-05T17:55:39.468Z</time>
      </trkpt>
      <trkpt lat="43.71107" lon="6.797">
        <ele>838.030341</ele>
        <time>2024-12-05T17:55:51.190Z</time>
      </trkpt>
      <trkpt lat="43.71128" lon="6.79764">
        <ele>835.958315</ele>
        <time>2024-12-05T17:56:03.463Z</time>
      </trkpt>
      <trkpt lat="43.71135" lon="6.79825">
        <ele>834.149556</ele>
        <time>2024-12-05T17:56:14.853Z</time>
      </trkpt>
      <trkpt lat="43.7115" lon="6.79834">
        <ele>833.482577</ele>
        <time>2024-12-05T17:56:19.146Z</time>
      </trkpt>
      <trkpt lat="43.71201" lon="6.79887">
        <ele>830.788889</ele>
        <time>2024-12-05T17:56:35.734Z</time>
      </trkpt>
      <trkpt lat="43.7123" lon="6.79892">
        <ele>827.850804</ele>
        <time>2024-12-05T17:56:42.781Z</time>
      </trkpt>
      <trkpt lat="43.71266" lon="6.79912">
        <ele>823.883141</ele>
        <time>2024-12-05T17:56:51.703Z</time>
      </trkpt>
      <trkpt lat="43.7131" lon="6.79927">
        <ele>819.277701</ele>
        <time>2024-12-05T17:57:01.440Z</time>
      </trkpt>
      <trkpt lat="43.71345" lon="6.79951">
        <ele>815.342352</ele>
        <time>2024-12-05T17:57:09.416Z</time>
      </trkpt>
      <trkpt lat="43.71378" lon="6.79943">
        <ele>811.242917</ele>
        <time>2024-12-05T17:57:16.125Z</time>
      </trkpt>
      <trkpt lat="43.71409" lon="6.79947">
        <ele>805.016932</ele>
        <time>2024-12-05T17:57:22.247Z</time>
      </trkpt>
      <trkpt lat="43.71437" lon="6.79965">
        <ele>798.723639</ele>
        <time>2024-12-05T17:57:28.387Z</time>
      </trkpt>
      <trkpt lat="43.71446" lon="6.79964">
        <ele>796.997763</ele>
        <time>2024-12-05T17:57:30.063Z</time>
      </trkpt>
      <trkpt lat="43.71474" lon="6.79985">
        <ele>790.694387</ele>
        <time>2024-12-05T17:57:36.159Z</time>
      </trkpt>
      <trkpt lat="43.7149" lon="6.80007">
        <ele>786.155441</ele>
        <time>2024-12-05T17:57:40.534Z</time>
      </trkpt>
      <trkpt lat="43.71504" lon="6.80033">
        <ele>781.406388</ele>
        <time>2024-12-05T17:57:45.113Z</time>
      </trkpt>
      <trkpt lat="43.71575" lon="6.80092">
        <ele>766.417976</ele>
        <time>2024-12-05T17:58:01.172Z</time>
      </trkpt>
      <trkpt lat="43.71598" lon="6.80126">
        <ele>760.571895</ele>
        <time>2024-12-05T17:58:07.893Z</time>
      </trkpt>
      <trkpt lat="43.7163" lon="6.80136">
        <ele>754.910504</ele>
        <time>2024-12-05T17:58:14.492Z</time>
      </trkpt>
      <trkpt lat="43.71656" lon="6.80137">
        <ele>750.434848</ele>
        <time>2024-12-05T17:58:19.767Z</time>
      </trkpt>
      <trkpt lat="43.71677" lon="6.80127">
        <ele>746.549698</ele>
        <time>2024-12-05T17:58:24.399Z</time>
      </trkpt>
      <trkpt lat="43.71704" lon="6.8012">
        <ele>742.154176</ele>
        <time>2024-12-05T17:58:30.052Z</time>
      </trkpt>
      <trkpt lat="43.71778" lon="6.8014">
        <ele>730.472601</ele>
        <time>2024-12-05T17:58:45.122Z</time>
      </trkpt>
      <trkpt lat="43.71794" lon="6.80153">
        <ele>727.58106</ele>
        <time>2024-12-05T17:58:48.855Z</time>
      </trkpt>
      <trkpt lat="43.71803" lon="6.80179">
        <ele>724.393777</ele>
        <time>2024-12-05T17:58:52.966Z</time>
      </trkpt>
      <trkpt lat="43.71811" lon="6.8019">
        <ele>722.598361</ele>
        <time>2024-12-05T17:58:55.288Z</time>
      </trkpt>
      <trkpt lat="43.71819" lon="6.8021">
        <ele>719.987824</ele>
        <time>2024-12-05T17:58:58.661Z</time>
      </trkpt>
      <trkpt lat="43.71811" lon="6.80218">
        <ele>718.320009</ele>
        <time>2024-12-05T17:59:00.828Z</time>
      </trkpt>
      <trkpt lat="43.71774" lon="6.80212">
        <ele>712.585761</ele>
        <time>2024-12-05T17:59:08.176Z</time>
      </trkpt>
      <trkpt lat="43.71733" lon="6.80229">
        <ele>705.770271</ele>
        <time>2024-12-05T17:59:16.891Z</time>
      </trkpt>
      <trkpt lat="43.71698" lon="6.80238">
        <ele>700.242557</ele>
        <time>2024-12-05T17:59:24.068Z</time>
      </trkpt>
      <trkpt lat="43.71681" lon="6.80259">
        <ele>696.682268</ele>
        <time>2024-12-05T17:59:28.658Z</time>
      </trkpt>
      <trkpt lat="43.71653" lon="6.80313">
        <ele>689.118919</ele>
        <time>2024-12-05T17:59:38.291Z</time>
      </trkpt>
      <trkpt lat="43.71621" lon="6.80353">
        <ele>683.915163</ele>
        <time>2024-12-05T17:59:46.857Z</time>
      </trkpt>
      <trkpt lat="43.71609" lon="6.8036">
        <ele>682.307381</ele>
        <time>2024-12-05T17:59:49.524Z</time>
      </trkpt>
      <trkpt lat="43.71589" lon="6.80404">
        <ele>677.745267</ele>
        <time>2024-12-05T17:59:57.214Z</time>
      </trkpt>
      <trkpt lat="43.71561" lon="6.80418">
        <ele>674.108234</ele>
        <time>2024-12-05T18:00:03.604Z</time>
      </trkpt>
      <trkpt lat="43.7155" lon="6.80413">
        <ele>672.76578</ele>
        <time>2024-12-05T18:00:06.033Z</time>
      </trkpt>
      <trkpt lat="43.71535" lon="6.80381">
        <ele>669.439494</ele>
        <time>2024-12-05T18:00:12.105Z</time>
      </trkpt>
      <trkpt lat="43.71515" lon="6.80375">
        <ele>667.210449</ele>
        <time>2024-12-05T18:00:16.832Z</time>
      </trkpt>
      <trkpt lat="43.71493" lon="6.80384">
        <ele>665.929555</ele>
        <time>2024-12-05T18:00:22.193Z</time>
      </trkpt>
      <trkpt lat="43.71464" lon="6.80389">
        <ele>664.267099</ele>
        <time>2024-12-05T18:00:29.383Z</time>
      </trkpt>
      <trkpt lat="43.71424" lon="6.80381">
        <ele>661.919903</ele>
        <time>2024-12-05T18:00:39.725Z</time>
      </trkpt>
      <trkpt lat="43.71416" lon="6.80375">
        <ele>661.415004</ele>
        <time>2024-12-05T18:00:41.948Z</time>
      </trkpt>
      <trkpt lat="43.71366" lon="6.80384">
        <ele>658.546173</ele>
        <time>2024-12-05T18:00:54.261Z</time>
      </trkpt>
      <trkpt lat="43.71294" lon="6.80375">
        <ele>651.762167</ele>
        <time>2024-12-05T18:01:10.278Z</time>
      </trkpt>
      <trkpt lat="43.71259" lon="6.80406">
        <ele>647.106242</ele>
        <time>2024-12-05T18:01:19.099Z</time>
      </trkpt>
      <trkpt lat="43.71238" lon="6.8044">
        <ele>643.435796</ele>
        <time>2024-12-05T18:01:25.896Z</time>
      </trkpt>
      <trkpt lat="43.71226" lon="6.80446">
        <ele>642.050073</ele>
        <time>2024-12-05T18:01:28.435Z</time>
      </trkpt>
      <trkpt lat="43.71187" lon="6.80454">
        <ele>637.649838</ele>
        <time>2024-12-05T18:01:36.451Z</time>
      </trkpt>
      <trkpt lat="43.71149" lon="6.80471">
        <ele>632.170071</ele>
        <time>2024-12-05T18:01:44.575Z</time>
      </trkpt>
      <trkpt lat="43.71129" lon="6.80476">
        <ele>629.21263</ele>
        <time>2024-12-05T18:01:48.835Z</time>
      </trkpt>
      <trkpt lat="43.71086" lon="6.80475">
        <ele>623.203297</ele>
        <time>2024-12-05T18:01:57.404Z</time>
      </trkpt>
      <trkpt lat="43.7107" lon="6.80468">
        <ele>620.829884</ele>
        <time>2024-12-05T18:02:00.781Z</time>
      </trkpt>
      <trkpt lat="43.71041" lon="6.80486">
        <ele>616.400814</ele>
        <time>2024-12-05T18:02:07.130Z</time>
      </trkpt>
      <trkpt lat="43.71035" lon="6.80505">
        <ele>614.217107</ele>
        <time>2024-12-05T18:02:10.303Z</time>
      </trkpt>
      <trkpt lat="43.71047" lon="6.80539">
        <ele>611.03046</ele>
        <time>2024-12-05T18:02:15.968Z</time>
      </trkpt>
      <trkpt lat="43.71063" lon="6.80565">
        <ele>609.28645</ele>
        <time>2024-12-05T18:02:21.316Z</time>
      </trkpt>
      <trkpt lat="43.71087" lon="6.80579">
        <ele>607.46734</ele>
        <time>2024-12-05T18:02:27.099Z</time>
      </trkpt>
      <trkpt lat="43.71105" lon="6.80587">
        <ele>606.12133</ele>
        <time>2024-12-05T18:02:31.510Z</time>
      </trkpt>
      <trkpt lat="43.71126" lon="6.80585">
        <ele>604.695947</ele>
        <time>2024-12-05T18:02:36.317Z</time>
      </trkpt>
      <trkpt lat="43.71151" lon="6.80579">
        <ele>602.909146</ele>
        <time>2024-12-05T18:02:42.438Z</time>
      </trkpt>
      <trkpt lat="43.71186" lon="6.8054">
        <ele>599.778807</ele>
        <time>2024-12-05T18:02:53.504Z</time>
      </trkpt>
      <trkpt lat="43.71189" lon="6.80542">
        <ele>599.498704</ele>
        <time>2024-12-05T18:02:54.533Z</time>
      </trkpt>
      <trkpt lat="43.71191" lon="6.80548">
        <ele>599.227179</ele>
        <time>2024-12-05T18:02:55.578Z</time>
      </trkpt>
      <trkpt lat="43.71167" lon="6.80574">
        <ele>597.769009</ele>
        <time>2024-12-05T18:03:03.379Z</time>
      </trkpt>
      <trkpt lat="43.71168" lon="6.80581">
        <ele>597.557381</ele>
        <time>2024-12-05T18:03:04.491Z</time>
      </trkpt>
      <trkpt lat="43.71175" lon="6.80606">
        <ele>596.65214</ele>
        <time>2024-12-05T18:03:09.360Z</time>
      </trkpt>
      <trkpt lat="43.71179" lon="6.80625">
        <ele>595.998082</ele>
        <time>2024-12-05T18:03:12.832Z</time>
      </trkpt>
      <trkpt lat="43.71177" lon="6.80648">
        <ele>595.237942</ele>
        <time>2024-12-05T18:03:16.806Z</time>
      </trkpt>
      <trkpt lat="43.71154" lon="6.80727">
        <ele>592.444732</ele>
        <time>2024-12-05T18:03:31.095Z</time>
      </trkpt>
      <trkpt lat="43.71094" lon="6.80762">
        <ele>590.477521</ele>
        <time>2024-12-05T18:03:47.932Z</time>
      </trkpt>
      <trkpt lat="43.71009" lon="6.80732">
        <ele>589.335089</ele>
        <time>2024-12-05T18:04:11.889Z</time>
      </trkpt>
      <trkpt lat="43.70992" lon="6.80733">
        <ele>589.114772</ele>
        <time>2024-12-05T18:04:16.958Z</time>
      </trkpt>
      <trkpt lat="43.70966" lon="6.80737">
        <ele>588.782685</ele>
        <time>2024-12-05T18:04:22.028Z</time>
      </trkpt>
      <trkpt lat="43.70947" lon="6.80742">
        <ele>588.608438</ele>
        <time>2024-12-05T18:04:26.107Z</time>
      </trkpt>
      <trkpt lat="43.70899" lon="6.80786">
        <ele>592.085746</ele>
        <time>2024-12-05T18:04:40.546Z</time>
      </trkpt>
      <trkpt lat="43.70881" lon="6.80791">
        <ele>593.229732</ele>
        <time>2024-12-05T18:04:46.209Z</time>
      </trkpt>
      <trkpt lat="43.70839" lon="6.80791">
        <ele>595.734348</ele>
        <time>2024-12-05T18:05:01.626Z</time>
      </trkpt>
      <trkpt lat="43.70802" lon="6.80814">
        <ele>598.14431</ele>
        <time>2024-12-05T18:05:16.636Z</time>
      </trkpt>
      <trkpt lat="43.70757" lon="6.80853">
        <ele>602.813296</ele>
        <time>2024-12-05T18:05:34.731Z</time>
      </trkpt>
      <trkpt lat="43.70732" lon="6.80856">
        <ele>605.405951</ele>
        <time>2024-12-05T18:05:44.314Z</time>
      </trkpt>
      <trkpt lat="43.70712" lon="6.80854">
        <ele>607.500537</ele>
        <time>2024-12-05T18:05:52.544Z</time>
      </trkpt>
      <trkpt lat="43.70698" lon="6.80845">
        <ele>609.052331</ele>
        <time>2024-12-05T18:05:59.117Z</time>
      </trkpt>
      <trkpt lat="43.70624" lon="6.80841">
        <ele>616.800188</ele>
        <time>2024-12-05T18:06:33.986Z</time>
      </trkpt>
      <trkpt lat="43.7058" lon="6.80829">
        <ele>619.665129</ele>
        <time>2024-12-05T18:06:53.704Z</time>
      </trkpt>
      <trkpt lat="43.70553" lon="6.80811">
        <ele>621.154439</ele>
        <time>2024-12-05T18:07:05.380Z</time>
      </trkpt>
      <trkpt lat="43.70524" lon="6.80766">
        <ele>623.317578</ele>
        <time>2024-12-05T18:07:18.088Z</time>
      </trkpt>
      <trkpt lat="43.70458" lon="6.80625">
        <ele>630.929518</ele>
        <time>2024-12-05T18:07:40.323Z</time>
      </trkpt>
      <trkpt lat="43.70443" lon="6.80612">
        <ele>632.314992</ele>
        <time>2024-12-05T18:07:44.235Z</time>
      </trkpt>
      <trkpt lat="43.70437" lon="6.80616">
        <ele>632.860396</ele>
        <time>2024-12-05T18:07:45.957Z</time>
      </trkpt>
      <trkpt lat="43.70396" lon="6.80745">
        <ele>641.285498</ele>
        <time>2024-12-05T18:08:33.303Z</time>
      </trkpt>
      <trkpt lat="43.7036" lon="6.80825">
        <ele>650.551369</ele>
        <time>2024-12-05T18:09:17.167Z</time>
      </trkpt>
      <trkpt lat="43.70333" lon="6.80868">
        <ele>656.382526</ele>
        <time>2024-12-05T18:09:40.101Z</time>
      </trkpt>
      <trkpt lat="43.70327" lon="6.80872">
        <ele>657.295502</ele>
        <time>2024-12-05T18:09:43.495Z</time>
      </trkpt>
      <trkpt lat="43.7032" lon="6.80859">
        <ele>658.902594</ele>
        <time>2024-12-05T18:09:49.275Z</time>
      </trkpt>
      <trkpt lat="43.70311" lon="6.80825">
        <ele>662.632668</ele>
        <time>2024-12-05T18:10:01.719Z</time>
      </trkpt>
      <trkpt lat="43.70307" lon="6.80799">
        <ele>665.309902</ele>
        <time>2024-12-05T18:10:10.013Z</time>
      </trkpt>
      <trkpt lat="43.70306" lon="6.80792">
        <ele>666.002246</ele>
        <time>2024-12-05T18:10:12.040Z</time>
      </trkpt>
      <trkpt lat="43.70302" lon="6.80766">
        <ele>668.238794</ele>
        <time>2024-12-05T18:10:19.755Z</time>
      </trkpt>
      <trkpt lat="43.7029" lon="6.80716">
        <ele>671.813618</ele>
        <time>2024-12-05T18:10:33.840Z</time>
      </trkpt>
      <trkpt lat="43.70258" lon="6.80607">
        <ele>679.731667</ele>
        <time>2024-12-05T18:11:04.191Z</time>
      </trkpt>
      <trkpt lat="43.70237" lon="6.80566">
        <ele>683.192339</ele>
        <time>2024-12-05T18:11:19.279Z</time>
      </trkpt>
      <trkpt lat="43.70212" lon="6.8053">
        <ele>686.414377</ele>
        <time>2024-12-05T18:11:34.837Z</time>
      </trkpt>
      <trkpt lat="43.70103" lon="6.8048">
        <ele>696.365594</ele>
        <time>2024-12-05T18:12:20.622Z</time>
      </trkpt>
      <trkpt lat="43.7008" lon="6.80465">
        <ele>698.57615</ele>
        <time>2024-12-05T18:12:28.568Z</time>
      </trkpt>
      <trkpt lat="43.70068" lon="6.80451">
        <ele>699.81195</ele>
        <time>2024-12-05T18:12:33.157Z</time>
      </trkpt>
      <trkpt lat="43.7004" lon="6.80395">
        <ele>701.519039</ele>
        <time>2024-12-05T18:12:46.408Z</time>
      </trkpt>
      <trkpt lat="43.70022" lon="6.80372">
        <ele>702.39696</ele>
        <time>2024-12-05T18:12:52.519Z</time>
      </trkpt>
      <trkpt lat="43.70006" lon="6.80359">
        <ele>703.022116</ele>
        <time>2024-12-05T18:12:56.679Z</time>
      </trkpt>
      <trkpt lat="43.69997" lon="6.8036">
        <ele>703.325987</ele>
        <time>2024-12-05T18:12:58.651Z</time>
      </trkpt>
      <trkpt lat="43.69989" lon="6.80365">
        <ele>703.636519</ele>
        <time>2024-12-05T18:13:00.719Z</time>
      </trkpt>
      <trkpt lat="43.69981" lon="6.80375">
        <ele>704.007638</ele>
        <time>2024-12-05T18:13:03.139Z</time>
      </trkpt>
      <trkpt lat="43.69968" lon="6.80404">
        <ele>704.859389</ele>
        <time>2024-12-05T18:13:08.907Z</time>
      </trkpt>
      <trkpt lat="43.69941" lon="6.8047">
        <ele>706.800404</ele>
        <time>2024-12-05T18:13:22.872Z</time>
      </trkpt>
      <trkpt lat="43.69901" lon="6.80584">
        <ele>710.110026</ele>
        <time>2024-12-05T18:13:47.670Z</time>
      </trkpt>
      <trkpt lat="43.69895" lon="6.80615">
        <ele>710.946716</ele>
        <time>2024-12-05T18:13:53.725Z</time>
      </trkpt>
      <trkpt lat="43.69893" lon="6.80733">
        <ele>713.601444</ele>
        <time>2024-12-05T18:14:14.934Z</time>
      </trkpt>
      <trkpt lat="43.69888" lon="6.80768">
        <ele>714.299124</ele>
        <time>2024-12-05T18:14:21.219Z</time>
      </trkpt>
      <trkpt lat="43.69847" lon="6.80957">
        <ele>717.85866</ele>
        <time>2024-12-05T18:14:55.558Z</time>
      </trkpt>
      <trkpt lat="43.69836" lon="6.81018">
        <ele>718.706024</ele>
        <time>2024-12-05T18:15:06.364Z</time>
      </trkpt>
      <trkpt lat="43.69826" lon="6.81086">
        <ele>719.648232</ele>
        <time>2024-12-05T18:15:18.005Z</time>
      </trkpt>
      <trkpt lat="43.69816" lon="6.8121">
        <ele>721.361755</ele>
        <time>2024-12-05T18:15:37.841Z</time>
      </trkpt>
      <trkpt lat="43.69818" lon="6.81246">
        <ele>721.884613</ele>
        <time>2024-12-05T18:15:43.575Z</time>
      </trkpt>
      <trkpt lat="43.69835" lon="6.81336">
        <ele>723.212185</ele>
        <time>2024-12-05T18:15:58.866Z</time>
      </trkpt>
      <trkpt lat="43.6984" lon="6.81396">
        <ele>724.075104</ele>
        <time>2024-12-05T18:16:09.478Z</time>
      </trkpt>
      <trkpt lat="43.69851" lon="6.81644">
        <ele>731.127934</ele>
        <time>2024-12-05T18:16:57.580Z</time>
      </trkpt>
      <trkpt lat="43.69858" lon="6.81688">
        <ele>732.598525</ele>
        <time>2024-12-05T18:17:06.600Z</time>
      </trkpt>
      <trkpt lat="43.69896" lon="6.81827">
        <ele>737.543756</ele>
        <time>2024-12-05T18:17:36.112Z</time>
      </trkpt>
      <trkpt lat="43.69916" lon="6.81884">
        <ele>739.6734</ele>
        <time>2024-12-05T18:17:49.207Z</time>
      </trkpt>
      <trkpt lat="43.69943" lon="6.8195">
        <ele>741.074411</ele>
        <time>2024-12-05T18:18:04.833Z</time>
      </trkpt>
      <trkpt lat="43.69963" lon="6.81975">
        <ele>741.769162</ele>
        <time>2024-12-05T18:18:12.011Z</time>
      </trkpt>
      <trkpt lat="43.70007" lon="6.82024">
        <ele>743.221985</ele>
        <time>2024-12-05T18:18:25.551Z</time>
      </trkpt>
      <trkpt lat="43.70021" lon="6.82041">
        <ele>743.700523</ele>
        <time>2024-12-05T18:18:29.553Z</time>
      </trkpt>
      <trkpt lat="43.70067" lon="6.82143">
        <ele>742.115908</ele>
        <time>2024-12-05T18:18:44.573Z</time>
      </trkpt>
      <trkpt lat="43.701" lon="6.82214">
        <ele>740.062875</ele>
        <time>2024-12-05T18:18:53.278Z</time>
      </trkpt>
      <trkpt lat="43.70122" lon="6.82274">
        <ele>738.407718</ele>
        <time>2024-12-05T18:19:00.225Z</time>
      </trkpt>
      <trkpt lat="43.7013" lon="6.8231">
        <ele>737.457802</ele>
        <time>2024-12-05T18:19:04.077Z</time>
      </trkpt>
      <trkpt lat="43.70143" lon="6.82395">
        <ele>735.218529</ele>
        <time>2024-12-05T18:19:13.161Z</time>
      </trkpt>
      <trkpt lat="43.70154" lon="6.82502">
        <ele>732.430764</ele>
        <time>2024-12-05T18:19:25.089Z</time>
      </trkpt>
      <trkpt lat="43.70155" lon="6.82556">
        <ele>731.956417</ele>
        <time>2024-12-05T18:19:31.564Z</time>
      </trkpt>
      <trkpt lat="43.70148" lon="6.82607">
        <ele>732.239363</ele>
        <time>2024-12-05T18:19:38.249Z</time>
      </trkpt>
      <trkpt lat="43.70125" lon="6.82723">
        <ele>732.89522</ele>
        <time>2024-12-05T18:19:57.667Z</time>
      </trkpt>
      <trkpt lat="43.70128" lon="6.82764">
        <ele>733.124911</ele>
        <time>2024-12-05T18:20:05.381Z</time>
      </trkpt>
      <trkpt lat="43.70137" lon="6.82784">
        <ele>733.320981</ele>
        <time>2024-12-05T18:20:09.781Z</time>
      </trkpt>
      <trkpt lat="43.70154" lon="6.82799">
        <ele>733.569918</ele>
        <time>2024-12-05T18:20:14.928Z</time>
      </trkpt>
      <trkpt lat="43.70159" lon="6.82804">
        <ele>733.649402</ele>
        <time>2024-12-05T18:20:16.587Z</time>
      </trkpt>
      <trkpt lat="43.7018" lon="6.82839">
        <ele>734.064029</ele>
        <time>2024-12-05T18:20:24.976Z</time>
      </trkpt>
      <trkpt lat="43.70191" lon="6.82882">
        <ele>734.47563</ele>
        <time>2024-12-05T18:20:32.906Z</time>
      </trkpt>
      <trkpt lat="43.70203" lon="6.82947">
        <ele>735.093213</ele>
        <time>2024-12-05T18:20:43.389Z</time>
      </trkpt>
      <trkpt lat="43.70214" lon="6.83159">
        <ele>730.957994</ele>
        <time>2024-12-05T18:21:06.598Z</time>
      </trkpt>
      <trkpt lat="43.70228" lon="6.83266">
        <ele>727.78199</ele>
        <time>2024-12-05T18:21:18.016Z</time>
      </trkpt>
      <trkpt lat="43.70198" lon="6.83254">
        <ele>726.199975</ele>
        <time>2024-12-05T18:21:25.537Z</time>
      </trkpt>
      <trkpt lat="43.70178" lon="6.83251">
        <ele>725.171322</ele>
        <time>2024-12-05T18:21:30.415Z</time>
      </trkpt>
      <trkpt lat="43.70147" lon="6.83259">
        <ele>723.610687</ele>
        <time>2024-12-05T18:21:37.794Z</time>
      </trkpt>
      <trkpt lat="43.70107" lon="6.83275">
        <ele>721.471851</ele>
        <time>2024-12-05T18:21:47.884Z</time>
      </trkpt>
      <trkpt lat="43.70036" lon="6.83468">
        <ele>713.484484</ele>
        <time>2024-12-05T18:22:25.171Z</time>
      </trkpt>
      <trkpt lat="43.70016" lon="6.83476">
        <ele>712.446608</ele>
        <time>2024-12-05T18:22:30.137Z</time>
      </trkpt>
      <trkpt lat="43.69973" lon="6.83567">
        <ele>708.434764</ele>
        <time>2024-12-05T18:22:49.503Z</time>
      </trkpt>
      <trkpt lat="43.69956" lon="6.836">
        <ele>706.961111</ele>
        <time>2024-12-05T18:22:56.617Z</time>
      </trkpt>
      <trkpt lat="43.69931" lon="6.83639">
        <ele>705.041252</ele>
        <time>2024-12-05T18:23:05.749Z</time>
      </trkpt>
      <trkpt lat="43.69915" lon="6.83691">
        <ele>702.995335</ele>
        <time>2024-12-05T18:23:15.339Z</time>
      </trkpt>
      <trkpt lat="43.69903" lon="6.83705">
        <ele>702.181515</ele>
        <time>2024-12-05T18:23:19.122Z</time>
      </trkpt>
      <trkpt lat="43.69906" lon="6.83721">
        <ele>701.600019</ele>
        <time>2024-12-05T18:23:20.691Z</time>
      </trkpt>
      <trkpt lat="43.69904" lon="6.83737">
        <ele>700.961901</ele>
        <time>2024-12-05T18:23:22.350Z</time>
      </trkpt>
      <trkpt lat="43.69896" lon="6.83762">
        <ele>699.963773</ele>
        <time>2024-12-05T18:23:24.949Z</time>
      </trkpt>
      <trkpt lat="43.69884" lon="6.83788">
        <ele>698.735752</ele>
        <time>2024-12-05T18:23:28.145Z</time>
      </trkpt>
      <trkpt lat="43.69869" lon="6.83833">
        <ele>696.848828</ele>
        <time>2024-12-05T18:23:33.057Z</time>
      </trkpt>
      <trkpt lat="43.69859" lon="6.83883">
        <ele>694.869504</ele>
        <time>2024-12-05T18:23:38.317Z</time>
      </trkpt>
      <trkpt lat="43.69833" lon="6.83952">
        <ele>692.106888</ele>
        <time>2024-12-05T18:23:46.433Z</time>
      </trkpt>
      <trkpt lat="43.6981" lon="6.84011">
        <ele>691.213441</ele>
        <time>2024-12-05T18:23:53.622Z</time>
      </trkpt>
      <trkpt lat="43.69805" lon="6.8403">
        <ele>690.934551</ele>
        <time>2024-12-05T18:23:55.936Z</time>
      </trkpt>
      <trkpt lat="43.69791" lon="6.84127">
        <ele>689.592487</ele>
        <time>2024-12-05T18:24:07.904Z</time>
      </trkpt>
      <trkpt lat="43.69784" lon="6.84195">
        <ele>689.23025</ele>
        <time>2024-12-05T18:24:17.573Z</time>
      </trkpt>
      <trkpt lat="43.69794" lon="6.84256">
        <ele>691.053611</ele>
        <time>2024-12-05T18:24:28.135Z</time>
      </trkpt>
      <trkpt lat="43.69792" lon="6.84303">
        <ele>692.421488</ele>
        <time>2024-12-05T18:24:36.999Z</time>
      </trkpt>
      <trkpt lat="43.69787" lon="6.84332">
        <ele>693.285951</ele>
        <time>2024-12-05T18:24:43.059Z</time>
      </trkpt>
      <trkpt lat="43.69778" lon="6.84355">
        <ele>694.059554</ele>
        <time>2024-12-05T18:24:48.850Z</time>
      </trkpt>
      <trkpt lat="43.69763" lon="6.84398">
        <ele>695.464943</ele>
        <time>2024-12-05T18:25:00.145Z</time>
      </trkpt>
      <trkpt lat="43.69762" lon="6.84454">
        <ele>697.532205</ele>
        <time>2024-12-05T18:25:13.136Z</time>
      </trkpt>
      <trkpt lat="43.69769" lon="6.84489">
        <ele>699.093591</ele>
        <time>2024-12-05T18:25:21.402Z</time>
      </trkpt>
      <trkpt lat="43.69759" lon="6.84495">
        <ele>699.718864</ele>
        <time>2024-12-05T18:25:25.048Z</time>
      </trkpt>
      <trkpt lat="43.69765" lon="6.84513">
        <ele>700.57482</ele>
        <time>2024-12-05T18:25:30.004Z</time>
      </trkpt>
      <trkpt lat="43.69773" lon="6.84519">
        <ele>701.067277</ele>
        <time>2024-12-05T18:25:32.813Z</time>
      </trkpt>
      <trkpt lat="43.69776" lon="6.84524">
        <ele>701.354333</ele>
        <time>2024-12-05T18:25:34.460Z</time>
      </trkpt>
      <trkpt lat="43.69776" lon="6.8453">
        <ele>701.602839</ele>
        <time>2024-12-05T18:25:35.800Z</time>
      </trkpt>
      <trkpt lat="43.6977" lon="6.84534">
        <ele>701.991378</ele>
        <time>2024-12-05T18:25:37.722Z</time>
      </trkpt>
      <trkpt lat="43.6977" lon="6.8454">
        <ele>702.276669</ele>
        <time>2024-12-05T18:25:39.214Z</time>
      </trkpt>
      <trkpt lat="43.69774" lon="6.84544">
        <ele>702.562221</ele>
        <time>2024-12-05T18:25:40.702Z</time>
      </trkpt>
      <trkpt lat="43.69778" lon="6.84542">
        <ele>702.822252</ele>
        <time>2024-12-05T18:25:41.989Z</time>
      </trkpt>
      <trkpt lat="43.69802" lon="6.84574">
        <ele>704.761976</ele>
        <time>2024-12-05T18:25:51.845Z</time>
      </trkpt>
      <trkpt lat="43.69853" lon="6.84695">
        <ele>706.666655</ele>
        <time>2024-12-05T18:26:19.321Z</time>
      </trkpt>
      <trkpt lat="43.69854" lon="6.84697">
        <ele>706.666655</ele>
        <time>2024-12-05T18:26:19.940Z</time>
      </trkpt>
      <trkpt lat="43.69878" lon="6.84743">
        <ele>706.666655</ele>
        <time>2024-12-05T18:26:30.021Z</time>
      </trkpt>
      <trkpt lat="43.69892" lon="6.84758">
        <ele>706.666655</ele>
        <time>2024-12-05T18:26:34.333Z</time>
      </trkpt>
      <trkpt lat="43.69911" lon="6.8477">
        <ele>706.666655</ele>
        <time>2024-12-05T18:26:39.109Z</time>
      </trkpt>
      <trkpt lat="43.69913" lon="6.84772">
        <ele>706.666655</ele>
        <time>2024-12-05T18:26:39.654Z</time>
      </trkpt>
      <trkpt lat="43.69922" lon="6.84779">
        <ele>706.666655</ele>
        <time>2024-12-05T18:26:41.929Z</time>
      </trkpt>
      <trkpt lat="43.69924" lon="6.84773">
        <ele>706.666655</ele>
        <time>2024-12-05T18:26:43.195Z</time>
      </trkpt>
      <trkpt lat="43.6992" lon="6.8477">
        <ele>706.666655</ele>
        <time>2024-12-05T18:26:44.277Z</time>
      </trkpt>
    </trkseg>
  </trk>
</gpx>